<?xml version="1.0" encoding="UTF-8"?>
<gpx version="1.1" creator="2bulu-scraper" xmlns="http://www.topografix.com/GPX/1/1">
  <metadata><name>金口河大瓦山</name><desc>source: 2bulu.com trackId=84782821; exported 2026-09-01T16:16:34.785Z</desc>
    <bounds minlat="29.3530183" minlon="103.015676" maxlat="29.3733808" maxlon="103.0331791"/>
    <link href="https://www.2bulu.com/track/t-cJsGk4sF6LXp%252FR2KBg5Tzw%253D%253D.htm"><text>2bulu 源页面</text></link>
  </metadata>
  <wpt lat="29.373085" lon="103.0322117"><ele>1848</ele><name>
        </name></wpt>
  <wpt lat="29.3686943" lon="103.0289917"><ele>1952</ele><name>黄精基地
        </name></wpt>
  <wpt lat="29.3682629" lon="103.027209"><ele>1933</ele><name>当归基地
        </name></wpt>
  <wpt lat="29.367419" lon="103.0258493"><ele>1981</ele><name>
        </name></wpt>
  <wpt lat="29.3682967" lon="103.0213583"><ele>2086</ele><name>
        </name></wpt>
  <wpt lat="29.3672009" lon="103.016037"><ele>2412</ele><name>上来左转
        </name></wpt>
  <wpt lat="29.3644037" lon="103.0178061"><ele>2429</ele><name>
        </name></wpt>
  <wpt lat="29.3641689" lon="103.0181161"><ele>2429</ele><name>野草莓
        </name></wpt>
  <wpt lat="29.36374" lon="103.01907"><ele>2438</ele><name>
        </name></wpt>
  <wpt lat="29.3636962" lon="103.0189161"><ele>2444</ele><name>转转花
        </name></wpt>
  <wpt lat="29.362889" lon="103.0189849"><ele>2444</ele><name>进入沼泽路
        </name></wpt>
  <wpt lat="29.3603559" lon="103.019743"><ele>2515</ele><name>
        </name></wpt>
  <wpt lat="29.35839" lon="103.01989"><ele>2650</ele><name>杜鹃
        </name></wpt>
  <wpt lat="29.3582115" lon="103.0198898"><ele>2592</ele><name>
        </name></wpt>
  <wpt lat="29.3586478" lon="103.0192521"><ele>2697</ele><name>
        </name></wpt>
  <wpt lat="29.3581317" lon="103.01854"><ele>2791</ele><name>
        </name></wpt>
  <wpt lat="29.358036" lon="103.0186386"><ele>2610</ele><name>小平台休息会
        </name></wpt>
  <wpt lat="29.357985" lon="103.0187033"><ele>2809</ele><name>
        </name></wpt>
  <wpt lat="29.3576327" lon="103.0185805"><ele>2847</ele><name>
        </name></wpt>
  <wpt lat="29.3574715" lon="103.0185394"><ele>2587</ele><name>
        </name></wpt>
  <wpt lat="29.3573284" lon="103.0185776"><ele>2586</ele><name>午饭
        </name></wpt>
  <wpt lat="29.3570862" lon="103.0188828"><ele>2584</ele><name>金佛
        </name></wpt>
  <wpt lat="29.357008" lon="103.0190659"><ele>2582</ele><name>
        </name></wpt>
  <wpt lat="29.3565438" lon="103.0197996"><ele>2940</ele><name>
        </name></wpt>
  <wpt lat="29.3549747" lon="103.0202942"><ele>2597</ele><name>红石壁
        </name></wpt>
  <wpt lat="29.3548088" lon="103.0203018"><ele>2606</ele><name>迎客松
        </name></wpt>
  <wpt lat="29.3544191" lon="103.0202642"><ele>2980</ele><name>
        </name></wpt>
  <wpt lat="29.354372" lon="103.0202255"><ele>2614</ele><name>下拍
        </name></wpt>
  <wpt lat="29.3542137" lon="103.0202637"><ele>2623</ele><name>
        </name></wpt>
  <wpt lat="29.3538171" lon="103.0200038"><ele>3005</ele><name>
        </name></wpt>
  <wpt lat="29.3534336" lon="103.0195847"><ele>2636</ele><name>
        </name></wpt>
  <wpt lat="29.3533554" lon="103.019516"><ele>2628</ele><name>
        </name></wpt>
  <wpt lat="29.3533592" lon="103.0195084"><ele>2628</ele><name>一线天
        </name></wpt>
  <wpt lat="29.353075" lon="103.0193939"><ele>2647</ele><name>不想走了，回辙
        </name></wpt>
  <wpt lat="29.3674667" lon="103.01665"><ele>2411</ele><name>这基耕道太绕了
        </name></wpt>
  <trk><name>金口河大瓦山</name>
      <trkseg>
        <trkpt lat="29.373085" lon="103.0322117"><ele>1847.8</ele><time>2026-05-22T15:59:16.000Z</time></trkpt>
        <trkpt lat="29.3731532" lon="103.0321014"><ele>1847.8</ele><time>2026-05-22T15:59:28.000Z</time></trkpt>
        <trkpt lat="29.3731256" lon="103.0320075"><ele>1846.9</ele><time>2026-05-22T15:59:38.000Z</time></trkpt>
        <trkpt lat="29.3730899" lon="103.0319088"><ele>1845.05</ele><time>2026-05-22T15:59:50.000Z</time></trkpt>
        <trkpt lat="29.3730238" lon="103.0318376"><ele>1842.7</ele><time>2026-05-22T16:00:00.000Z</time></trkpt>
        <trkpt lat="29.3729456" lon="103.0317761"><ele>1840.9</ele><time>2026-05-22T16:00:10.000Z</time></trkpt>
        <trkpt lat="29.3728604" lon="103.0317126"><ele>1840.17</ele><time>2026-05-22T16:00:22.000Z</time></trkpt>
        <trkpt lat="29.3727723" lon="103.0316419"><ele>1840.53</ele><time>2026-05-22T16:00:32.000Z</time></trkpt>
        <trkpt lat="29.372682" lon="103.0315754"><ele>1840.82</ele><time>2026-05-22T16:00:44.000Z</time></trkpt>
        <trkpt lat="29.3725844" lon="103.0315443"><ele>1841.24</ele><time>2026-05-22T16:01:00.000Z</time></trkpt>
        <trkpt lat="29.3724897" lon="103.0315584"><ele>1842.25</ele><time>2026-05-22T16:01:10.000Z</time></trkpt>
        <trkpt lat="29.3723968" lon="103.0315971"><ele>1843.35</ele><time>2026-05-22T16:01:22.000Z</time></trkpt>
        <trkpt lat="29.3723148" lon="103.0316587"><ele>1844.06</ele><time>2026-05-22T16:01:34.000Z</time></trkpt>
        <trkpt lat="29.3722355" lon="103.0317167"><ele>1845.54</ele><time>2026-05-22T16:01:42.000Z</time></trkpt>
        <trkpt lat="29.3721567" lon="103.0317966"><ele>1846.94</ele><time>2026-05-22T16:01:52.000Z</time></trkpt>
        <trkpt lat="29.3720651" lon="103.031862"><ele>1848.3</ele><time>2026-05-22T16:02:02.000Z</time></trkpt>
        <trkpt lat="29.371976" lon="103.0319138"><ele>1849.81</ele><time>2026-05-22T16:02:10.000Z</time></trkpt>
        <trkpt lat="29.3718821" lon="103.0319366"><ele>1851.14</ele><time>2026-05-22T16:02:18.000Z</time></trkpt>
        <trkpt lat="29.3717841" lon="103.0319194"><ele>1852.37</ele><time>2026-05-22T16:02:26.000Z</time></trkpt>
        <trkpt lat="29.3716913" lon="103.031867"><ele>1855.05</ele><time>2026-05-22T16:02:34.000Z</time></trkpt>
        <trkpt lat="29.3716032" lon="103.0317911"><ele>1857.09</ele><time>2026-05-22T16:02:46.000Z</time></trkpt>
        <trkpt lat="29.3715281" lon="103.0317065"><ele>1856.79</ele><time>2026-05-22T16:02:52.000Z</time></trkpt>
        <trkpt lat="29.3714599" lon="103.0316282"><ele>1855.59</ele><time>2026-05-22T16:03:02.000Z</time></trkpt>
        <trkpt lat="29.3713934" lon="103.0315332"><ele>1853.57</ele><time>2026-05-22T16:03:12.000Z</time></trkpt>
        <trkpt lat="29.3713392" lon="103.031434"><ele>1852.55</ele><time>2026-05-22T16:03:24.000Z</time></trkpt>
        <trkpt lat="29.3712677" lon="103.031351"><ele>1852.53</ele><time>2026-05-22T16:03:34.000Z</time></trkpt>
        <trkpt lat="29.3712064" lon="103.0312698"><ele>1854.8</ele><time>2026-05-22T16:03:44.000Z</time></trkpt>
        <trkpt lat="29.3711279" lon="103.0312027"><ele>1854.97</ele><time>2026-05-22T16:03:57.000Z</time></trkpt>
        <trkpt lat="29.3710405" lon="103.0311417"><ele>1855.54</ele><time>2026-05-22T16:04:06.000Z</time></trkpt>
        <trkpt lat="29.3709504" lon="103.0310969"><ele>1856.47</ele><time>2026-05-22T16:04:16.000Z</time></trkpt>
        <trkpt lat="29.3708503" lon="103.0310611"><ele>1856.83</ele><time>2026-05-22T16:04:24.000Z</time></trkpt>
        <trkpt lat="29.3707509" lon="103.0310209"><ele>1856.17</ele><time>2026-05-22T16:04:34.000Z</time></trkpt>
        <trkpt lat="29.3706589" lon="103.0309655"><ele>1855.19</ele><time>2026-05-22T16:04:42.000Z</time></trkpt>
        <trkpt lat="29.37056" lon="103.0309491"><ele>1854.55</ele><time>2026-05-22T16:04:52.000Z</time></trkpt>
        <trkpt lat="29.3704697" lon="103.0309113"><ele>1854.87</ele><time>2026-05-22T16:05:04.000Z</time></trkpt>
        <trkpt lat="29.3703791" lon="103.0308952"><ele>1856.35</ele><time>2026-05-22T16:05:14.000Z</time></trkpt>
        <trkpt lat="29.3702817" lon="103.0308997"><ele>1857.62</ele><time>2026-05-22T16:05:24.000Z</time></trkpt>
        <trkpt lat="29.3702181" lon="103.0308394"><ele>1858.6</ele><time>2026-05-22T16:05:38.000Z</time></trkpt>
        <trkpt lat="29.3701671" lon="103.0308851"><ele>1860.36</ele><time>2026-05-22T16:05:50.000Z</time></trkpt>
        <trkpt lat="29.3700876" lon="103.0308858"><ele>1861.8</ele><time>2026-05-22T16:06:00.000Z</time></trkpt>
        <trkpt lat="29.3700275" lon="103.030813"><ele>1863.73</ele><time>2026-05-22T16:06:10.000Z</time></trkpt>
        <trkpt lat="29.3699715" lon="103.0307249"><ele>1866.26</ele><time>2026-05-22T16:06:18.000Z</time></trkpt>
        <trkpt lat="29.36992" lon="103.0306327"><ele>1868.17</ele><time>2026-05-22T16:06:28.000Z</time></trkpt>
        <trkpt lat="29.3699209" lon="103.0305295"><ele>1867.75</ele><time>2026-05-22T16:06:38.000Z</time></trkpt>
        <trkpt lat="29.3699341" lon="103.0305243"><ele>1866.65</ele><time>2026-05-22T16:06:48.000Z</time></trkpt>
        <trkpt lat="29.3698823" lon="103.0304876"><ele>1866.2</ele><time>2026-05-22T16:07:04.000Z</time></trkpt>
        <trkpt lat="29.3698019" lon="103.0304411"><ele>1867.53</ele><time>2026-05-22T16:07:18.000Z</time></trkpt>
        <trkpt lat="29.3697309" lon="103.0303703"><ele>1869.24</ele><time>2026-05-22T16:07:28.000Z</time></trkpt>
        <trkpt lat="29.3696911" lon="103.0302732"><ele>1870.21</ele><time>2026-05-22T16:07:38.000Z</time></trkpt>
        <trkpt lat="29.3696525" lon="103.0301643"><ele>1871.2</ele><time>2026-05-22T16:07:54.000Z</time></trkpt>
        <trkpt lat="29.3695855" lon="103.030072"><ele>1872.96</ele><time>2026-05-22T16:08:12.000Z</time></trkpt>
        <trkpt lat="29.36952" lon="103.0299888"><ele>1875.9</ele><time>2026-05-22T16:08:24.000Z</time></trkpt>
        <trkpt lat="29.3694487" lon="103.0299053"><ele>1878.65</ele><time>2026-05-22T16:08:38.000Z</time></trkpt>
        <trkpt lat="29.3693783" lon="103.0298186"><ele>1881.47</ele><time>2026-05-22T16:09:02.000Z</time></trkpt>
        <trkpt lat="29.3693252" lon="103.0297193"><ele>1883.76</ele><time>2026-05-22T16:09:14.000Z</time></trkpt>
        <trkpt lat="29.3692961" lon="103.0296155"><ele>1885.03</ele><time>2026-05-22T16:09:28.000Z</time></trkpt>
        <trkpt lat="29.3692425" lon="103.0295332"><ele>1886.82</ele><time>2026-05-22T16:09:42.000Z</time></trkpt>
        <trkpt lat="29.3691845" lon="103.0294494"><ele>1888.79</ele><time>2026-05-22T16:09:54.000Z</time></trkpt>
        <trkpt lat="29.3690952" lon="103.0294382"><ele>1890.73</ele><time>2026-05-22T16:10:06.000Z</time></trkpt>
        <trkpt lat="29.3690488" lon="103.0293691"><ele>1893.3</ele><time>2026-05-22T16:10:16.000Z</time></trkpt>
        <trkpt lat="29.3689987" lon="103.0292785"><ele>1896.27</ele><time>2026-05-22T16:10:28.000Z</time></trkpt>
        <trkpt lat="29.3689121" lon="103.0292211"><ele>1898.43</ele><time>2026-05-22T16:10:46.000Z</time></trkpt>
        <trkpt lat="29.368808" lon="103.0292"><ele>1900.78</ele><time>2026-05-22T16:11:00.000Z</time></trkpt>
        <trkpt lat="29.3687544" lon="103.0291149"><ele>1903.97</ele><time>2026-05-22T16:11:10.000Z</time></trkpt>
        <trkpt lat="29.368746" lon="103.0290039"><ele>1906.18</ele><time>2026-05-22T16:11:22.000Z</time></trkpt>
        <trkpt lat="29.36883" lon="103.0288917"><ele>1905.37</ele><time>2026-05-22T16:12:36.000Z</time></trkpt>
        <trkpt lat="29.36883" lon="103.0287833"><ele>1905.21</ele><time>2026-05-22T16:12:52.000Z</time></trkpt>
        <trkpt lat="29.3688145" lon="103.0286665"><ele>1905.55</ele><time>2026-05-22T16:13:16.000Z</time></trkpt>
        <trkpt lat="29.3687563" lon="103.0285765"><ele>1905.83</ele><time>2026-05-22T16:13:34.000Z</time></trkpt>
        <trkpt lat="29.3687124" lon="103.0284761"><ele>1905.43</ele><time>2026-05-22T16:13:52.000Z</time></trkpt>
        <trkpt lat="29.36865" lon="103.0283724"><ele>1908.47</ele><time>2026-05-22T16:14:12.000Z</time></trkpt>
        <trkpt lat="29.3686015" lon="103.0282687"><ele>1911.75</ele><time>2026-05-22T16:14:22.000Z</time></trkpt>
        <trkpt lat="29.3685482" lon="103.0281564"><ele>1913.67</ele><time>2026-05-22T16:14:30.000Z</time></trkpt>
        <trkpt lat="29.3685394" lon="103.0280911"><ele>1914.15</ele><time>2026-05-22T16:14:48.000Z</time></trkpt>
        <trkpt lat="29.3685183" lon="103.0279821"><ele>1913.49</ele><time>2026-05-22T16:15:34.000Z</time></trkpt>
        <trkpt lat="29.3684604" lon="103.0278949"><ele>1916.85</ele><time>2026-05-22T16:15:44.000Z</time></trkpt>
        <trkpt lat="29.3684173" lon="103.027793"><ele>1920.05</ele><time>2026-05-22T16:15:58.000Z</time></trkpt>
        <trkpt lat="29.3684452" lon="103.0276927"><ele>1922.05</ele><time>2026-05-22T16:16:10.000Z</time></trkpt>
        <trkpt lat="29.3684377" lon="103.0275898"><ele>1924.05</ele><time>2026-05-22T16:16:26.000Z</time></trkpt>
        <trkpt lat="29.368406" lon="103.0274923"><ele>1926.57</ele><time>2026-05-22T16:16:40.000Z</time></trkpt>
        <trkpt lat="29.3683479" lon="103.0274108"><ele>1929.33</ele><time>2026-05-22T16:17:10.000Z</time></trkpt>
        <trkpt lat="29.3682925" lon="103.0273212"><ele>1930.87</ele><time>2026-05-22T16:17:30.000Z</time></trkpt>
        <trkpt lat="29.3682629" lon="103.027209"><ele>1932.56</ele><time>2026-05-22T16:18:10.000Z</time></trkpt>
        <trkpt lat="29.3682111" lon="103.0271133"><ele>1935.59</ele><time>2026-05-22T16:18:26.000Z</time></trkpt>
        <trkpt lat="29.3681579" lon="103.0270225"><ele>1938.17</ele><time>2026-05-22T16:18:40.000Z</time></trkpt>
        <trkpt lat="29.3680735" lon="103.0269996"><ele>1940.38</ele><time>2026-05-22T16:18:52.000Z</time></trkpt>
        <trkpt lat="29.3679832" lon="103.0269647"><ele>1942.71</ele><time>2026-05-22T16:19:14.000Z</time></trkpt>
        <trkpt lat="29.3679028" lon="103.0269077"><ele>1944.9</ele><time>2026-05-22T16:19:28.000Z</time></trkpt>
        <trkpt lat="29.3678473" lon="103.02682"><ele>1945.67</ele><time>2026-05-22T16:19:46.000Z</time></trkpt>
        <trkpt lat="29.3678187" lon="103.0267051"><ele>1948.09</ele><time>2026-05-22T16:20:02.000Z</time></trkpt>
        <trkpt lat="29.3677798" lon="103.0266049"><ele>1950.94</ele><time>2026-05-22T16:20:20.000Z</time></trkpt>
        <trkpt lat="29.3677476" lon="103.0264924"><ele>1954.75</ele><time>2026-05-22T16:20:36.000Z</time></trkpt>
        <trkpt lat="29.3677122" lon="103.0263873"><ele>1958.04</ele><time>2026-05-22T16:20:50.000Z</time></trkpt>
        <trkpt lat="29.3676838" lon="103.0262808"><ele>1960.3</ele><time>2026-05-22T16:21:10.000Z</time></trkpt>
        <trkpt lat="29.3676176" lon="103.0262127"><ele>1962.11</ele><time>2026-05-22T16:21:20.000Z</time></trkpt>
        <trkpt lat="29.3675597" lon="103.0261312"><ele>1962.92</ele><time>2026-05-22T16:21:34.000Z</time></trkpt>
        <trkpt lat="29.3675192" lon="103.0260353"><ele>1963.43</ele><time>2026-05-22T16:21:52.000Z</time></trkpt>
        <trkpt lat="29.367483" lon="103.0259363"><ele>1966.04</ele><time>2026-05-22T16:22:18.000Z</time></trkpt>
        <trkpt lat="29.367419" lon="103.0258493"><ele>1971.7</ele><time>2026-05-22T16:22:48.000Z</time></trkpt>
        <trkpt lat="29.3673629" lon="103.0257508"><ele>1977.29</ele><time>2026-05-22T16:23:04.000Z</time></trkpt>
        <trkpt lat="29.3672922" lon="103.0256616"><ele>1979.96</ele><time>2026-05-22T16:23:20.000Z</time></trkpt>
        <trkpt lat="29.3672301" lon="103.0255762"><ele>1981.48</ele><time>2026-05-22T16:23:32.000Z</time></trkpt>
        <trkpt lat="29.367286" lon="103.0255319"><ele>1983.86</ele><time>2026-05-22T16:23:50.000Z</time></trkpt>
        <trkpt lat="29.3673788" lon="103.0254748"><ele>1988.65</ele><time>2026-05-22T16:24:24.000Z</time></trkpt>
        <trkpt lat="29.3674886" lon="103.0254267"><ele>1989.19</ele><time>2026-05-22T16:24:32.000Z</time></trkpt>
        <trkpt lat="29.3675841" lon="103.0253577"><ele>1989.88</ele><time>2026-05-22T16:24:44.000Z</time></trkpt>
        <trkpt lat="29.3676681" lon="103.0252914"><ele>1990.66</ele><time>2026-05-22T16:24:52.000Z</time></trkpt>
        <trkpt lat="29.3677379" lon="103.0251955"><ele>1991.07</ele><time>2026-05-22T16:25:02.000Z</time></trkpt>
        <trkpt lat="29.3678013" lon="103.0250953"><ele>1991.51</ele><time>2026-05-22T16:25:10.000Z</time></trkpt>
        <trkpt lat="29.3678354" lon="103.0249903"><ele>1991.03</ele><time>2026-05-22T16:25:22.000Z</time></trkpt>
        <trkpt lat="29.3678559" lon="103.0248772"><ele>1992.52</ele><time>2026-05-22T16:25:30.000Z</time></trkpt>
        <trkpt lat="29.3678722" lon="103.0248308"><ele>1993.85</ele><time>2026-05-22T16:25:50.000Z</time></trkpt>
        <trkpt lat="29.3678912" lon="103.0247459"><ele>1994.77</ele><time>2026-05-22T16:26:20.000Z</time></trkpt>
        <trkpt lat="29.3679012" lon="103.02464"><ele>1995.65</ele><time>2026-05-22T16:26:30.000Z</time></trkpt>
        <trkpt lat="29.3678996" lon="103.0245231"><ele>1996.62</ele><time>2026-05-22T16:26:40.000Z</time></trkpt>
        <trkpt lat="29.3679308" lon="103.0244097"><ele>1997.73</ele><time>2026-05-22T16:26:50.000Z</time></trkpt>
        <trkpt lat="29.3679775" lon="103.0242928"><ele>1999.09</ele><time>2026-05-22T16:27:00.000Z</time></trkpt>
        <trkpt lat="29.3680074" lon="103.0241851"><ele>2000.6</ele><time>2026-05-22T16:27:10.000Z</time></trkpt>
        <trkpt lat="29.3680045" lon="103.02407"><ele>2001.37</ele><time>2026-05-22T16:27:20.000Z</time></trkpt>
        <trkpt lat="29.3680011" lon="103.0239631"><ele>2001.73</ele><time>2026-05-22T16:27:28.000Z</time></trkpt>
        <trkpt lat="29.3680169" lon="103.0238521"><ele>2003.14</ele><time>2026-05-22T16:27:38.000Z</time></trkpt>
        <trkpt lat="29.3680495" lon="103.0237479"><ele>2004.15</ele><time>2026-05-22T16:27:48.000Z</time></trkpt>
        <trkpt lat="29.3681177" lon="103.0236727"><ele>2004.6</ele><time>2026-05-22T16:27:56.000Z</time></trkpt>
        <trkpt lat="29.3682066" lon="103.0236302"><ele>2004.52</ele><time>2026-05-22T16:28:06.000Z</time></trkpt>
        <trkpt lat="29.3682916" lon="103.0235778"><ele>2004.6</ele><time>2026-05-22T16:28:14.000Z</time></trkpt>
        <trkpt lat="29.3683689" lon="103.0235117"><ele>2004.98</ele><time>2026-05-22T16:28:26.000Z</time></trkpt>
        <trkpt lat="29.36847" lon="103.0234508"><ele>2005.21</ele><time>2026-05-22T16:28:36.000Z</time></trkpt>
        <trkpt lat="29.3685544" lon="103.0233796"><ele>2004.64</ele><time>2026-05-22T16:28:42.000Z</time></trkpt>
        <trkpt lat="29.3686414" lon="103.0233396"><ele>2003.98</ele><time>2026-05-22T16:28:52.000Z</time></trkpt>
        <trkpt lat="29.368633" lon="103.0232526"><ele>2004.63</ele><time>2026-05-22T16:29:10.000Z</time></trkpt>
        <trkpt lat="29.3685348" lon="103.0232221"><ele>2007.16</ele><time>2026-05-22T16:29:22.000Z</time></trkpt>
        <trkpt lat="29.3684626" lon="103.0231377"><ele>2008.21</ele><time>2026-05-22T16:29:34.000Z</time></trkpt>
        <trkpt lat="29.368404" lon="103.0230702"><ele>2009.71</ele><time>2026-05-22T16:29:58.000Z</time></trkpt>
        <trkpt lat="29.3683655" lon="103.0229695"><ele>2012.97</ele><time>2026-05-22T16:30:20.000Z</time></trkpt>
        <trkpt lat="29.3683525" lon="103.0228578"><ele>2015.31</ele><time>2026-05-22T16:30:36.000Z</time></trkpt>
        <trkpt lat="29.3683669" lon="103.0228242"><ele>2016.55</ele><time>2026-05-22T16:30:46.000Z</time></trkpt>
        <trkpt lat="29.3683481" lon="103.0227493"><ele>2018.34</ele><time>2026-05-22T16:31:08.000Z</time></trkpt>
        <trkpt lat="29.368316" lon="103.0226546"><ele>2021.68</ele><time>2026-05-22T16:31:26.000Z</time></trkpt>
        <trkpt lat="29.3682621" lon="103.0225569"><ele>2025.73</ele><time>2026-05-22T16:31:52.000Z</time></trkpt>
        <trkpt lat="29.368205" lon="103.0224583"><ele>2030.1</ele><time>2026-05-22T16:32:52.000Z</time></trkpt>
        <trkpt lat="29.3681667" lon="103.0223633"><ele>2034.88</ele><time>2026-05-22T16:33:12.000Z</time></trkpt>
        <trkpt lat="29.3681862" lon="103.0222585"><ele>2039.62</ele><time>2026-05-22T16:33:34.000Z</time></trkpt>
        <trkpt lat="29.368203" lon="103.0221493"><ele>2044.73</ele><time>2026-05-22T16:34:08.000Z</time></trkpt>
        <trkpt lat="29.3681805" lon="103.0220512"><ele>2048.59</ele><time>2026-05-22T16:34:26.000Z</time></trkpt>
        <trkpt lat="29.3682118" lon="103.0219649"><ele>2051.91</ele><time>2026-05-22T16:34:58.000Z</time></trkpt>
        <trkpt lat="29.3682543" lon="103.0218726"><ele>2055.99</ele><time>2026-05-22T16:35:28.000Z</time></trkpt>
        <trkpt lat="29.3682449" lon="103.0217685"><ele>2060.47</ele><time>2026-05-22T16:35:56.000Z</time></trkpt>
        <trkpt lat="29.368271" lon="103.0216688"><ele>2064.74</ele><time>2026-05-22T16:36:18.000Z</time></trkpt>
        <trkpt lat="29.3682707" lon="103.0215662"><ele>2069.67</ele><time>2026-05-22T16:36:44.000Z</time></trkpt>
        <trkpt lat="29.3682717" lon="103.02146"><ele>2074.76</ele><time>2026-05-22T16:37:46.000Z</time></trkpt>
        <trkpt lat="29.3682967" lon="103.0213583"><ele>2078.82</ele><time>2026-05-22T16:44:30.000Z</time></trkpt>
        <trkpt lat="29.36829" lon="103.0212483"><ele>2082.47</ele><time>2026-05-22T16:45:06.000Z</time></trkpt>
        <trkpt lat="29.3682241" lon="103.0211679"><ele>2083.82</ele><time>2026-05-22T16:45:40.000Z</time></trkpt>
        <trkpt lat="29.3681413" lon="103.021107"><ele>2087.29</ele><time>2026-05-22T16:45:46.000Z</time></trkpt>
        <trkpt lat="29.3681118" lon="103.0210785"><ele>2087.55</ele><time>2026-05-22T16:46:14.000Z</time></trkpt>
        <trkpt lat="29.3680403" lon="103.0210408"><ele>2091.49</ele><time>2026-05-22T16:46:34.000Z</time></trkpt>
        <trkpt lat="29.3680019" lon="103.0209509"><ele>2095.67</ele><time>2026-05-22T16:47:02.000Z</time></trkpt>
        <trkpt lat="29.3679884" lon="103.0208421"><ele>2100.28</ele><time>2026-05-22T16:47:30.000Z</time></trkpt>
        <trkpt lat="29.3679515" lon="103.0207451"><ele>2105.41</ele><time>2026-05-22T16:48:00.000Z</time></trkpt>
        <trkpt lat="29.3679318" lon="103.0206346"><ele>2109.97</ele><time>2026-05-22T16:48:24.000Z</time></trkpt>
        <trkpt lat="29.3678773" lon="103.0205498"><ele>2114.63</ele><time>2026-05-22T16:49:06.000Z</time></trkpt>
        <trkpt lat="29.3677954" lon="103.0204955"><ele>2119.35</ele><time>2026-05-22T16:49:32.000Z</time></trkpt>
        <trkpt lat="29.3677101" lon="103.0204477"><ele>2123.54</ele><time>2026-05-22T16:50:24.000Z</time></trkpt>
        <trkpt lat="29.3676496" lon="103.0203726"><ele>2128.73</ele><time>2026-05-22T16:50:54.000Z</time></trkpt>
        <trkpt lat="29.367567" lon="103.0203412"><ele>2132.8</ele><time>2026-05-22T16:51:22.000Z</time></trkpt>
        <trkpt lat="29.3674957" lon="103.0202813"><ele>2136.67</ele><time>2026-05-22T16:51:40.000Z</time></trkpt>
        <trkpt lat="29.3674934" lon="103.0201852"><ele>2140.99</ele><time>2026-05-22T16:52:12.000Z</time></trkpt>
        <trkpt lat="29.3674383" lon="103.0201"><ele>2145.68</ele><time>2026-05-22T16:54:32.000Z</time></trkpt>
        <trkpt lat="29.367465" lon="103.0201167"><ele>2147.37</ele><time>2026-05-22T16:55:02.000Z</time></trkpt>
        <trkpt lat="29.3674042" lon="103.0200671"><ele>2148.46</ele><time>2026-05-22T16:55:10.000Z</time></trkpt>
        <trkpt lat="29.3673756" lon="103.0200379"><ele>2149.12</ele><time>2026-05-22T16:55:14.000Z</time></trkpt>
        <trkpt lat="29.3674431" lon="103.02011"><ele>2149.07</ele><time>2026-05-22T16:55:46.000Z</time></trkpt>
        <trkpt lat="29.3673833" lon="103.0200867"><ele>2149.17</ele><time>2026-05-22T17:01:16.000Z</time></trkpt>
        <trkpt lat="29.3673533" lon="103.0199867"><ele>2150.99</ele><time>2026-05-22T17:01:50.000Z</time></trkpt>
        <trkpt lat="29.3672853" lon="103.0199163"><ele>2154.48</ele><time>2026-05-22T17:02:36.000Z</time></trkpt>
        <trkpt lat="29.367204" lon="103.0198666"><ele>2159.09</ele><time>2026-05-22T17:03:12.000Z</time></trkpt>
        <trkpt lat="29.367151" lon="103.0197671"><ele>2163.14</ele><time>2026-05-22T17:03:50.000Z</time></trkpt>
        <trkpt lat="29.3671042" lon="103.0196636"><ele>2168.46</ele><time>2026-05-22T17:04:16.000Z</time></trkpt>
        <trkpt lat="29.3670364" lon="103.0195928"><ele>2172.91</ele><time>2026-05-22T17:04:52.000Z</time></trkpt>
        <trkpt lat="29.3669728" lon="103.0195189"><ele>2178.06</ele><time>2026-05-22T17:05:18.000Z</time></trkpt>
        <trkpt lat="29.3669603" lon="103.0194164"><ele>2183.16</ele><time>2026-05-22T17:05:48.000Z</time></trkpt>
        <trkpt lat="29.366938" lon="103.0193141"><ele>2188.72</ele><time>2026-05-22T17:06:08.000Z</time></trkpt>
        <trkpt lat="29.3669042" lon="103.0192134"><ele>2192.67</ele><time>2026-05-22T17:06:38.000Z</time></trkpt>
        <trkpt lat="29.366863" lon="103.0191138"><ele>2195.69</ele><time>2026-05-22T17:07:16.000Z</time></trkpt>
        <trkpt lat="29.3668529" lon="103.0190088"><ele>2200.34</ele><time>2026-05-22T17:07:46.000Z</time></trkpt>
        <trkpt lat="29.366846" lon="103.0189018"><ele>2205.06</ele><time>2026-05-22T17:08:38.000Z</time></trkpt>
        <trkpt lat="29.36685" lon="103.0187883"><ele>2210.75</ele><time>2026-05-22T17:17:08.000Z</time></trkpt>
        <trkpt lat="29.3667717" lon="103.01872"><ele>2215.94</ele><time>2026-05-22T17:17:28.000Z</time></trkpt>
        <trkpt lat="29.3667215" lon="103.0186249"><ele>2219.19</ele><time>2026-05-22T17:17:54.000Z</time></trkpt>
        <trkpt lat="29.3667034" lon="103.0185211"><ele>2224.01</ele><time>2026-05-22T17:18:16.000Z</time></trkpt>
        <trkpt lat="29.3667118" lon="103.0184284"><ele>2228.27</ele><time>2026-05-22T17:18:52.000Z</time></trkpt>
        <trkpt lat="29.366702" lon="103.0183177"><ele>2233.74</ele><time>2026-05-22T17:19:06.000Z</time></trkpt>
        <trkpt lat="29.3666443" lon="103.0182442"><ele>2237.25</ele><time>2026-05-22T17:19:54.000Z</time></trkpt>
        <trkpt lat="29.3666224" lon="103.0181515"><ele>2243.9</ele><time>2026-05-22T17:20:30.000Z</time></trkpt>
        <trkpt lat="29.3666097" lon="103.018049"><ele>2248.72</ele><time>2026-05-22T17:20:56.000Z</time></trkpt>
        <trkpt lat="29.366615" lon="103.0179367"><ele>2250.95</ele><time>2026-05-22T17:22:26.000Z</time></trkpt>
        <trkpt lat="29.3665583" lon="103.0178517"><ele>2256</ele><time>2026-05-22T17:23:12.000Z</time></trkpt>
        <trkpt lat="29.3665283" lon="103.0177483"><ele>2260.73</ele><time>2026-05-22T17:24:18.000Z</time></trkpt>
        <trkpt lat="29.3664767" lon="103.0176517"><ele>2269.45</ele><time>2026-05-22T17:25:04.000Z</time></trkpt>
        <trkpt lat="29.3665017" lon="103.0175033"><ele>2275.62</ele><time>2026-05-22T17:37:49.000Z</time></trkpt>
        <trkpt lat="29.366495" lon="103.0173967"><ele>2281.94</ele><time>2026-05-22T17:38:25.000Z</time></trkpt>
        <trkpt lat="29.3665417" lon="103.017235"><ele>2287.81</ele><time>2026-05-22T17:39:55.000Z</time></trkpt>
        <trkpt lat="29.3665917" lon="103.017075"><ele>2296.97</ele><time>2026-05-22T17:41:15.000Z</time></trkpt>
        <trkpt lat="29.3666233" lon="103.0169683"><ele>2307.78</ele><time>2026-05-22T17:42:11.000Z</time></trkpt>
        <trkpt lat="29.3666383" lon="103.0168533"><ele>2315.88</ele><time>2026-05-22T17:44:39.000Z</time></trkpt>
        <trkpt lat="29.366695" lon="103.0167633"><ele>2323.11</ele><time>2026-05-22T17:45:31.000Z</time></trkpt>
        <trkpt lat="29.3667954" lon="103.0167001"><ele>2328.4</ele><time>2026-05-22T17:46:27.000Z</time></trkpt>
        <trkpt lat="29.3668623" lon="103.0166224"><ele>2334.29</ele><time>2026-05-22T17:47:07.000Z</time></trkpt>
        <trkpt lat="29.3669141" lon="103.0165327"><ele>2339.07</ele><time>2026-05-22T17:47:45.000Z</time></trkpt>
        <trkpt lat="29.3669633" lon="103.0164333"><ele>2343.04</ele><time>2026-05-22T17:49:01.000Z</time></trkpt>
        <trkpt lat="29.36699" lon="103.0163333"><ele>2350.46</ele><time>2026-05-22T17:49:55.000Z</time></trkpt>
        <trkpt lat="29.3670317" lon="103.0162283"><ele>2358.31</ele><time>2026-05-22T17:51:05.000Z</time></trkpt>
        <trkpt lat="29.3670583" lon="103.0161267"><ele>2365.75</ele><time>2026-05-22T17:52:21.000Z</time></trkpt>
        <trkpt lat="29.367115" lon="103.016045"><ele>2374.85</ele><time>2026-05-22T17:53:31.000Z</time></trkpt>
        <trkpt lat="29.3671717" lon="103.015965"><ele>2382.01</ele><time>2026-05-22T17:54:37.000Z</time></trkpt>
        <trkpt lat="29.3672683" lon="103.0160033"><ele>2390.01</ele><time>2026-05-22T17:56:59.000Z</time></trkpt>
        <trkpt lat="29.3671983" lon="103.0159317"><ele>2392.33</ele><time>2026-05-22T17:57:29.000Z</time></trkpt>
        <trkpt lat="29.3671072" lon="103.0159319"><ele>2392.23</ele><time>2026-05-22T17:57:55.000Z</time></trkpt>
        <trkpt lat="29.3670149" lon="103.0159192"><ele>2393.85</ele><time>2026-05-22T17:58:05.000Z</time></trkpt>
        <trkpt lat="29.3669158" lon="103.0159153"><ele>2395.55</ele><time>2026-05-22T17:58:27.000Z</time></trkpt>
        <trkpt lat="29.3668108" lon="103.0159178"><ele>2396.86</ele><time>2026-05-22T17:58:37.000Z</time></trkpt>
        <trkpt lat="29.3667069" lon="103.0159116"><ele>2397.82</ele><time>2026-05-22T17:58:47.000Z</time></trkpt>
        <trkpt lat="29.3666115" lon="103.0159226"><ele>2398.37</ele><time>2026-05-22T17:58:59.000Z</time></trkpt>
        <trkpt lat="29.3665145" lon="103.0159098"><ele>2399.76</ele><time>2026-05-22T17:59:11.000Z</time></trkpt>
        <trkpt lat="29.366413" lon="103.0159237"><ele>2401.46</ele><time>2026-05-22T17:59:23.000Z</time></trkpt>
        <trkpt lat="29.3663134" lon="103.0159557"><ele>2402.16</ele><time>2026-05-22T17:59:35.000Z</time></trkpt>
        <trkpt lat="29.3662272" lon="103.0160045"><ele>2401.92</ele><time>2026-05-22T17:59:45.000Z</time></trkpt>
        <trkpt lat="29.3661372" lon="103.0160429"><ele>2402.04</ele><time>2026-05-22T17:59:55.000Z</time></trkpt>
        <trkpt lat="29.3660451" lon="103.0160745"><ele>2401.98</ele><time>2026-05-22T18:00:07.000Z</time></trkpt>
        <trkpt lat="29.3659934" lon="103.0160894"><ele>2401.86</ele><time>2026-05-22T18:00:42.000Z</time></trkpt>
        <trkpt lat="29.3659501" lon="103.0161599"><ele>2402.35</ele><time>2026-05-22T18:00:52.000Z</time></trkpt>
        <trkpt lat="29.3658765" lon="103.0161314"><ele>2402.89</ele><time>2026-05-22T18:01:00.000Z</time></trkpt>
        <trkpt lat="29.3658039" lon="103.0161732"><ele>2402.25</ele><time>2026-05-22T18:01:18.000Z</time></trkpt>
        <trkpt lat="29.3657537" lon="103.0162635"><ele>2400.33</ele><time>2026-05-22T18:01:30.000Z</time></trkpt>
        <trkpt lat="29.3656884" lon="103.0163524"><ele>2401.14</ele><time>2026-05-22T18:01:46.000Z</time></trkpt>
        <trkpt lat="29.3656127" lon="103.0164172"><ele>2402.24</ele><time>2026-05-22T18:02:00.000Z</time></trkpt>
        <trkpt lat="29.3655397" lon="103.0164814"><ele>2404.07</ele><time>2026-05-22T18:02:14.000Z</time></trkpt>
        <trkpt lat="29.365451" lon="103.0165306"><ele>2406.58</ele><time>2026-05-22T18:02:28.000Z</time></trkpt>
        <trkpt lat="29.3653554" lon="103.0165609"><ele>2407.1</ele><time>2026-05-22T18:02:42.000Z</time></trkpt>
        <trkpt lat="29.3653009" lon="103.0166366"><ele>2406.46</ele><time>2026-05-22T18:02:54.000Z</time></trkpt>
        <trkpt lat="29.3652636" lon="103.0166652"><ele>2406.56</ele><time>2026-05-22T18:03:12.000Z</time></trkpt>
        <trkpt lat="29.3652308" lon="103.0167526"><ele>2409.63</ele><time>2026-05-22T18:03:48.000Z</time></trkpt>
        <trkpt lat="29.3651827" lon="103.0168519"><ele>2411.73</ele><time>2026-05-22T18:04:00.000Z</time></trkpt>
        <trkpt lat="29.3651353" lon="103.0169533"><ele>2412.92</ele><time>2026-05-22T18:04:12.000Z</time></trkpt>
        <trkpt lat="29.3650834" lon="103.0170472"><ele>2413.81</ele><time>2026-05-22T18:04:24.000Z</time></trkpt>
        <trkpt lat="29.3650248" lon="103.0171373"><ele>2414.24</ele><time>2026-05-22T18:04:36.000Z</time></trkpt>
        <trkpt lat="29.3649603" lon="103.0172296"><ele>2415.17</ele><time>2026-05-22T18:04:54.000Z</time></trkpt>
        <trkpt lat="29.3648866" lon="103.0173191"><ele>2415.44</ele><time>2026-05-22T18:05:08.000Z</time></trkpt>
        <trkpt lat="29.3648403" lon="103.0174162"><ele>2416.5</ele><time>2026-05-22T18:05:20.000Z</time></trkpt>
        <trkpt lat="29.3647709" lon="103.0174924"><ele>2417.96</ele><time>2026-05-22T18:05:28.000Z</time></trkpt>
        <trkpt lat="29.3647033" lon="103.0175732"><ele>2418.97</ele><time>2026-05-22T18:05:44.000Z</time></trkpt>
        <trkpt lat="29.3646484" lon="103.0176591"><ele>2421</ele><time>2026-05-22T18:05:54.000Z</time></trkpt>
        <trkpt lat="29.3645682" lon="103.0176983"><ele>2422.94</ele><time>2026-05-22T18:06:10.000Z</time></trkpt>
        <trkpt lat="29.3644821" lon="103.0177441"><ele>2426.06</ele><time>2026-05-22T18:06:26.000Z</time></trkpt>
        <trkpt lat="29.3644037" lon="103.0178061"><ele>2427.5</ele><time>2026-05-22T18:06:42.000Z</time></trkpt>
        <trkpt lat="29.3643478" lon="103.0178936"><ele>2428.53</ele><time>2026-05-22T18:07:00.000Z</time></trkpt>
        <trkpt lat="29.3642588" lon="103.0179414"><ele>2429.42</ele><time>2026-05-22T18:07:18.000Z</time></trkpt>
        <trkpt lat="29.3641778" lon="103.0180093"><ele>2426.31</ele><time>2026-05-22T18:07:26.000Z</time></trkpt>
        <trkpt lat="29.3641535" lon="103.018037"><ele>2424.72</ele><time>2026-05-22T18:07:36.000Z</time></trkpt>
        <trkpt lat="29.3641689" lon="103.0181161"><ele>2424.58</ele><time>2026-05-22T18:07:58.000Z</time></trkpt>
        <trkpt lat="29.3641282" lon="103.0181883"><ele>2426.83</ele><time>2026-05-22T18:08:12.000Z</time></trkpt>
        <trkpt lat="29.3640656" lon="103.0182726"><ele>2430.04</ele><time>2026-05-22T18:08:24.000Z</time></trkpt>
        <trkpt lat="29.3639988" lon="103.0183694"><ele>2428.39</ele><time>2026-05-22T18:08:40.000Z</time></trkpt>
        <trkpt lat="29.3639608" lon="103.0184725"><ele>2430.42</ele><time>2026-05-22T18:09:00.000Z</time></trkpt>
        <trkpt lat="29.3639083" lon="103.0185583"><ele>2431.66</ele><time>2026-05-22T18:10:14.000Z</time></trkpt>
        <trkpt lat="29.3639267" lon="103.0186617"><ele>2432.54</ele><time>2026-05-22T18:12:20.000Z</time></trkpt>
        <trkpt lat="29.3638833" lon="103.018765"><ele>2433.12</ele><time>2026-05-22T18:12:42.000Z</time></trkpt>
        <trkpt lat="29.3638837" lon="103.018874"><ele>2433.59</ele><time>2026-05-22T18:12:54.000Z</time></trkpt>
        <trkpt lat="29.3638404" lon="103.0189621"><ele>2433.72</ele><time>2026-05-22T18:13:28.000Z</time></trkpt>
        <trkpt lat="29.3638551" lon="103.0190638"><ele>2434.06</ele><time>2026-05-22T18:14:08.000Z</time></trkpt>
        <trkpt lat="29.3638226" lon="103.0191558"><ele>2435.41</ele><time>2026-05-22T18:14:20.000Z</time></trkpt>
        <trkpt lat="29.36374" lon="103.01907"><ele>2436.05</ele><time>2026-05-22T18:15:38.000Z</time></trkpt>
        <trkpt lat="29.3637483" lon="103.0189667"><ele>2436.97</ele><time>2026-05-22T18:16:18.000Z</time></trkpt>
        <trkpt lat="29.3637217" lon="103.0190717"><ele>2440.3</ele><time>2026-05-22T18:18:14.000Z</time></trkpt>
        <trkpt lat="29.36372" lon="103.018965"><ele>2442.15</ele><time>2026-05-22T18:18:44.000Z</time></trkpt>
        <trkpt lat="29.3638033" lon="103.0190633"><ele>2442.51</ele><time>2026-05-22T18:22:44.000Z</time></trkpt>
        <trkpt lat="29.36373" lon="103.01898"><ele>2441.43</ele><time>2026-05-22T18:22:58.000Z</time></trkpt>
        <trkpt lat="29.3636665" lon="103.0188854"><ele>2443.01</ele><time>2026-05-22T18:23:18.000Z</time></trkpt>
        <trkpt lat="29.3636962" lon="103.0189161"><ele>2445.37</ele><time>2026-05-22T18:23:34.000Z</time></trkpt>
        <trkpt lat="29.3636183" lon="103.01891"><ele>2451.11</ele><time>2026-05-22T18:26:32.000Z</time></trkpt>
        <trkpt lat="29.36372" lon="103.018975"><ele>2451.75</ele><time>2026-05-22T18:26:40.000Z</time></trkpt>
        <trkpt lat="29.3637244" lon="103.0189878"><ele>2452.72</ele><time>2026-05-22T18:26:58.000Z</time></trkpt>
        <trkpt lat="29.3637424" lon="103.0190737"><ele>2449.31</ele><time>2026-05-22T18:27:36.000Z</time></trkpt>
        <trkpt lat="29.3637115" lon="103.0191245"><ele>2446.12</ele><time>2026-05-22T18:27:50.000Z</time></trkpt>
        <trkpt lat="29.3636301" lon="103.0191"><ele>2444.44</ele><time>2026-05-22T18:28:20.000Z</time></trkpt>
        <trkpt lat="29.3635322" lon="103.0190619"><ele>2443.73</ele><time>2026-05-22T18:28:44.000Z</time></trkpt>
        <trkpt lat="29.3634267" lon="103.0190384"><ele>2444.49</ele><time>2026-05-22T18:28:58.000Z</time></trkpt>
        <trkpt lat="29.3633344" lon="103.0189957"><ele>2445.7</ele><time>2026-05-22T18:29:20.000Z</time></trkpt>
        <trkpt lat="29.3632441" lon="103.0189481"><ele>2445.87</ele><time>2026-05-22T18:29:36.000Z</time></trkpt>
        <trkpt lat="29.3631488" lon="103.0189102"><ele>2443.78</ele><time>2026-05-22T18:29:48.000Z</time></trkpt>
        <trkpt lat="29.3630479" lon="103.0189157"><ele>2442.41</ele><time>2026-05-22T18:30:02.000Z</time></trkpt>
        <trkpt lat="29.3629417" lon="103.0189071"><ele>2440.81</ele><time>2026-05-22T18:30:14.000Z</time></trkpt>
        <trkpt lat="29.362889" lon="103.0189849"><ele>2439.6</ele><time>2026-05-22T18:31:04.000Z</time></trkpt>
        <trkpt lat="29.3628803" lon="103.019095"><ele>2441.02</ele><time>2026-05-22T18:31:47.000Z</time></trkpt>
        <trkpt lat="29.3628249" lon="103.0190917"><ele>2442.82</ele><time>2026-05-22T18:31:57.000Z</time></trkpt>
        <trkpt lat="29.3627386" lon="103.0190714"><ele>2443.67</ele><time>2026-05-22T18:32:07.000Z</time></trkpt>
        <trkpt lat="29.3626453" lon="103.0190837"><ele>2443.77</ele><time>2026-05-22T18:32:31.000Z</time></trkpt>
        <trkpt lat="29.362569" lon="103.0191424"><ele>2443.91</ele><time>2026-05-22T18:32:43.000Z</time></trkpt>
        <trkpt lat="29.3624802" lon="103.0191713"><ele>2444.25</ele><time>2026-05-22T18:33:41.000Z</time></trkpt>
        <trkpt lat="29.3624244" lon="103.0191605"><ele>2443.24</ele><time>2026-05-22T18:33:55.000Z</time></trkpt>
        <trkpt lat="29.3623548" lon="103.0191993"><ele>2442.75</ele><time>2026-05-22T18:34:41.000Z</time></trkpt>
        <trkpt lat="29.3622687" lon="103.0191996"><ele>2442.13</ele><time>2026-05-22T18:35:01.000Z</time></trkpt>
        <trkpt lat="29.3621828" lon="103.0192407"><ele>2442.37</ele><time>2026-05-22T18:35:17.000Z</time></trkpt>
        <trkpt lat="29.3620966" lon="103.0192818"><ele>2442</ele><time>2026-05-22T18:35:45.000Z</time></trkpt>
        <trkpt lat="29.3620182" lon="103.0193488"><ele>2442.26</ele><time>2026-05-22T18:36:05.000Z</time></trkpt>
        <trkpt lat="29.3619443" lon="103.0194195"><ele>2444.34</ele><time>2026-05-22T18:36:23.000Z</time></trkpt>
        <trkpt lat="29.3618641" lon="103.0194045"><ele>2447.25</ele><time>2026-05-22T18:36:41.000Z</time></trkpt>
        <trkpt lat="29.36177" lon="103.0193984"><ele>2449.98</ele><time>2026-05-22T18:37:13.000Z</time></trkpt>
        <trkpt lat="29.3616747" lon="103.0193846"><ele>2452.83</ele><time>2026-05-22T18:37:31.000Z</time></trkpt>
        <trkpt lat="29.3615811" lon="103.0193546"><ele>2456.21</ele><time>2026-05-22T18:37:57.000Z</time></trkpt>
        <trkpt lat="29.361481" lon="103.0193475"><ele>2459.74</ele><time>2026-05-22T18:38:39.000Z</time></trkpt>
        <trkpt lat="29.3613888" lon="103.0193767"><ele>2463.81</ele><time>2026-05-22T18:38:57.000Z</time></trkpt>
        <trkpt lat="29.3612933" lon="103.0193367"><ele>2466.99</ele><time>2026-05-22T18:40:05.000Z</time></trkpt>
        <trkpt lat="29.3611717" lon="103.0193617"><ele>2471.12</ele><time>2026-05-22T18:41:05.000Z</time></trkpt>
        <trkpt lat="29.3610333" lon="103.0193817"><ele>2475.63</ele><time>2026-05-22T18:42:37.000Z</time></trkpt>
        <trkpt lat="29.360945" lon="103.019425"><ele>2482.16</ele><time>2026-05-22T18:43:59.000Z</time></trkpt>
        <trkpt lat="29.3608383" lon="103.0194633"><ele>2487.68</ele><time>2026-05-22T18:44:33.000Z</time></trkpt>
        <trkpt lat="29.3607119" lon="103.0194791"><ele>2492.94</ele><time>2026-05-22T18:45:09.000Z</time></trkpt>
        <trkpt lat="29.360615" lon="103.0195767"><ele>2497.7</ele><time>2026-05-22T18:46:31.000Z</time></trkpt>
        <trkpt lat="29.36055" lon="103.01966"><ele>2503.89</ele><time>2026-05-22T18:46:47.000Z</time></trkpt>
        <trkpt lat="29.3604638" lon="103.0197067"><ele>2506.78</ele><time>2026-05-22T18:47:05.000Z</time></trkpt>
        <trkpt lat="29.3603559" lon="103.019743"><ele>2509.58</ele><time>2026-05-22T18:47:51.000Z</time></trkpt>
        <trkpt lat="29.3602875" lon="103.0196831"><ele>2514.19</ele><time>2026-05-22T18:48:21.000Z</time></trkpt>
        <trkpt lat="29.3602017" lon="103.0196231"><ele>2516.78</ele><time>2026-05-22T18:48:57.000Z</time></trkpt>
        <trkpt lat="29.3601309" lon="103.0195474"><ele>2519.45</ele><time>2026-05-22T18:49:53.000Z</time></trkpt>
        <trkpt lat="29.3600434" lon="103.0195443"><ele>2523.69</ele><time>2026-05-22T18:50:35.000Z</time></trkpt>
        <trkpt lat="29.3599716" lon="103.0196054"><ele>2529.46</ele><time>2026-05-22T18:51:11.000Z</time></trkpt>
        <trkpt lat="29.3598886" lon="103.0195835"><ele>2535.11</ele><time>2026-05-22T18:51:55.000Z</time></trkpt>
        <trkpt lat="29.359805" lon="103.0196617"><ele>2538.68</ele><time>2026-05-22T18:53:09.000Z</time></trkpt>
        <trkpt lat="29.35972" lon="103.0197067"><ele>2544.92</ele><time>2026-05-22T18:53:51.000Z</time></trkpt>
        <trkpt lat="29.3596674" lon="103.0197912"><ele>2550.12</ele><time>2026-05-22T18:54:43.000Z</time></trkpt>
        <trkpt lat="29.3595987" lon="103.0198569"><ele>2554.46</ele><time>2026-05-22T18:55:19.000Z</time></trkpt>
        <trkpt lat="29.3595189" lon="103.0199183"><ele>2559.29</ele><time>2026-05-22T18:55:49.000Z</time></trkpt>
        <trkpt lat="29.3594289" lon="103.0199205"><ele>2563.81</ele><time>2026-05-22T18:56:43.000Z</time></trkpt>
        <trkpt lat="29.35934" lon="103.0198167"><ele>2568.71</ele><time>2026-05-22T18:57:55.000Z</time></trkpt>
        <trkpt lat="29.35926" lon="103.01974"><ele>2574.6</ele><time>2026-05-22T19:01:24.000Z</time></trkpt>
        <trkpt lat="29.3591467" lon="103.0197333"><ele>2580.11</ele><time>2026-05-22T19:03:06.000Z</time></trkpt>
        <trkpt lat="29.3590567" lon="103.0197567"><ele>2589.78</ele><time>2026-05-22T19:03:52.000Z</time></trkpt>
        <trkpt lat="29.3589596" lon="103.0197758"><ele>2597.19</ele><time>2026-05-22T19:04:52.000Z</time></trkpt>
        <trkpt lat="29.3588665" lon="103.0197748"><ele>2603.86</ele><time>2026-05-22T19:05:48.000Z</time></trkpt>
        <trkpt lat="29.35879" lon="103.0198233"><ele>2610.16</ele><time>2026-05-22T19:07:02.000Z</time></trkpt>
        <trkpt lat="29.3587" lon="103.0198217"><ele>2615.38</ele><time>2026-05-22T19:08:18.000Z</time></trkpt>
        <trkpt lat="29.3586583" lon="103.0199167"><ele>2622.01</ele><time>2026-05-22T19:09:48.000Z</time></trkpt>
        <trkpt lat="29.3585683" lon="103.019945"><ele>2628.76</ele><time>2026-05-22T19:10:28.000Z</time></trkpt>
        <trkpt lat="29.3584817" lon="103.019905"><ele>2633.98</ele><time>2026-05-22T19:11:46.000Z</time></trkpt>
        <trkpt lat="29.35839" lon="103.01989"><ele>2639.88</ele><time>2026-05-22T19:12:48.000Z</time></trkpt>
        <trkpt lat="29.3583283" lon="103.0199683"><ele>2644.06</ele><time>2026-05-22T19:13:38.000Z</time></trkpt>
        <trkpt lat="29.3582483" lon="103.0200167"><ele>2648.21</ele><time>2026-05-22T19:14:40.000Z</time></trkpt>
        <trkpt lat="29.358235" lon="103.01991"><ele>2654.06</ele><time>2026-05-22T19:15:24.000Z</time></trkpt>
        <trkpt lat="29.3582533" lon="103.0198067"><ele>2658.25</ele><time>2026-05-22T19:16:30.000Z</time></trkpt>
        <trkpt lat="29.3582717" lon="103.019705"><ele>2662.31</ele><time>2026-05-22T19:17:30.000Z</time></trkpt>
        <trkpt lat="29.3582967" lon="103.01959"><ele>2666.82</ele><time>2026-05-22T19:19:14.000Z</time></trkpt>
        <trkpt lat="29.3583783" lon="103.0194283"><ele>2673.27</ele><time>2026-05-22T19:20:22.000Z</time></trkpt>
        <trkpt lat="29.3584733" lon="103.01945"><ele>2678.96</ele><time>2026-05-22T19:20:40.000Z</time></trkpt>
        <trkpt lat="29.3585655" lon="103.0194237"><ele>2683.45</ele><time>2026-05-22T19:21:04.000Z</time></trkpt>
        <trkpt lat="29.3586315" lon="103.0193542"><ele>2687.17</ele><time>2026-05-22T19:21:50.000Z</time></trkpt>
        <trkpt lat="29.3586478" lon="103.0192521"><ele>2689.59</ele><time>2026-05-22T19:22:38.000Z</time></trkpt>
        <trkpt lat="29.3585433" lon="103.019315"><ele>2692.91</ele><time>2026-05-22T19:24:40.000Z</time></trkpt>
        <trkpt lat="29.3585483" lon="103.0191917"><ele>2695.44</ele><time>2026-05-22T19:25:04.000Z</time></trkpt>
        <trkpt lat="29.3585167" lon="103.0192531"><ele>2695.51</ele><time>2026-05-22T19:25:24.000Z</time></trkpt>
        <trkpt lat="29.3584083" lon="103.01923"><ele>2698.52</ele><time>2026-05-22T19:26:48.000Z</time></trkpt>
        <trkpt lat="29.35837" lon="103.0191283"><ele>2707.24</ele><time>2026-05-22T19:27:58.000Z</time></trkpt>
        <trkpt lat="29.3582817" lon="103.0190733"><ele>2714.58</ele><time>2026-05-22T19:29:22.000Z</time></trkpt>
        <trkpt lat="29.35819" lon="103.01907"><ele>2723.23</ele><time>2026-05-22T19:30:55.000Z</time></trkpt>
        <trkpt lat="29.3581383" lon="103.0189817"><ele>2732.04</ele><time>2026-05-22T19:32:37.000Z</time></trkpt>
        <trkpt lat="29.3582617" lon="103.018835"><ele>2739.85</ele><time>2026-05-22T19:34:15.000Z</time></trkpt>
        <trkpt lat="29.3583433" lon="103.0187233"><ele>2748.3</ele><time>2026-05-22T19:35:41.000Z</time></trkpt>
        <trkpt lat="29.3583783" lon="103.0185867"><ele>2756.56</ele><time>2026-05-22T19:36:51.000Z</time></trkpt>
        <trkpt lat="29.3583433" lon="103.0184833"><ele>2763.8</ele><time>2026-05-22T19:41:03.000Z</time></trkpt>
        <trkpt lat="29.358255" lon="103.018525"><ele>2771.59</ele><time>2026-05-22T19:42:13.000Z</time></trkpt>
        <trkpt lat="29.3581317" lon="103.01854"><ele>2779.34</ele><time>2026-05-22T19:44:19.000Z</time></trkpt>
        <trkpt lat="29.3582217" lon="103.018545"><ele>2784.22</ele><time>2026-05-22T19:44:43.000Z</time></trkpt>
        <trkpt lat="29.35812" lon="103.0185917"><ele>2787.57</ele><time>2026-05-22T19:46:27.000Z</time></trkpt>
        <trkpt lat="29.3580433" lon="103.01853"><ele>2795.2</ele><time>2026-05-22T19:47:13.000Z</time></trkpt>
        <trkpt lat="29.3580767" lon="103.0186317"><ele>2799.5</ele><time>2026-05-22T19:48:59.000Z</time></trkpt>
        <trkpt lat="29.357985" lon="103.0187033"><ele>2803.37</ele><time>2026-05-22T19:54:59.000Z</time></trkpt>
        <trkpt lat="29.3578917" lon="103.0186817"><ele>2806.44</ele><time>2026-05-22T19:56:17.000Z</time></trkpt>
        <trkpt lat="29.3578267" lon="103.018755"><ele>2809.22</ele><time>2026-05-22T19:57:19.000Z</time></trkpt>
        <trkpt lat="29.3577417" lon="103.0187083"><ele>2815.45</ele><time>2026-05-22T19:58:13.000Z</time></trkpt>
        <trkpt lat="29.3577441" lon="103.0186109"><ele>2820.07</ele><time>2026-05-22T19:58:49.000Z</time></trkpt>
        <trkpt lat="29.3576717" lon="103.0186533"><ele>2822.49</ele><time>2026-05-22T20:01:57.000Z</time></trkpt>
        <trkpt lat="29.3575817" lon="103.0186183"><ele>2832.99</ele><time>2026-05-22T20:02:05.000Z</time></trkpt>
        <trkpt lat="29.3576327" lon="103.0185805"><ele>2837.6</ele><time>2026-05-22T20:02:15.000Z</time></trkpt>
        <trkpt lat="29.3575183" lon="103.01857"><ele>2840.65</ele><time>2026-05-22T20:10:33.000Z</time></trkpt>
        <trkpt lat="29.3574483" lon="103.01865"><ele>2849.28</ele><time>2026-05-22T20:12:39.000Z</time></trkpt>
        <trkpt lat="29.357355" lon="103.0186483"><ele>2857.76</ele><time>2026-05-22T20:13:43.000Z</time></trkpt>
        <trkpt lat="29.3572733" lon="103.0185983"><ele>2866.08</ele><time>2026-05-22T20:14:37.000Z</time></trkpt>
        <trkpt lat="29.357215" lon="103.0187417"><ele>2873.19</ele><time>2026-05-22T20:27:25.000Z</time></trkpt>
        <trkpt lat="29.3571167" lon="103.0187217"><ele>2881.54</ele><time>2026-05-22T20:28:25.000Z</time></trkpt>
        <trkpt lat="29.35715" lon="103.0188183"><ele>2891.63</ele><time>2026-05-22T20:29:29.000Z</time></trkpt>
        <trkpt lat="29.3570883" lon="103.018895"><ele>2898.16</ele><time>2026-05-22T20:30:01.000Z</time></trkpt>
        <trkpt lat="29.3569983" lon="103.0188717"><ele>2902.78</ele><time>2026-05-22T20:32:23.000Z</time></trkpt>
        <trkpt lat="29.3570267" lon="103.01897"><ele>2905.54</ele><time>2026-05-22T20:35:07.000Z</time></trkpt>
        <trkpt lat="29.3570167" lon="103.0190733"><ele>2909.78</ele><time>2026-05-22T20:35:55.000Z</time></trkpt>
        <trkpt lat="29.3569417" lon="103.0191467"><ele>2912.93</ele><time>2026-05-22T20:37:47.000Z</time></trkpt>
        <trkpt lat="29.3569" lon="103.0192433"><ele>2915.45</ele><time>2026-05-22T20:38:13.000Z</time></trkpt>
        <trkpt lat="29.3568231" lon="103.0192921"><ele>2918.36</ele><time>2026-05-22T20:38:27.000Z</time></trkpt>
        <trkpt lat="29.3567528" lon="103.019358"><ele>2921.09</ele><time>2026-05-22T20:38:47.000Z</time></trkpt>
        <trkpt lat="29.356717" lon="103.0194542"><ele>2923.37</ele><time>2026-05-22T20:39:13.000Z</time></trkpt>
        <trkpt lat="29.3566813" lon="103.0195564"><ele>2927.34</ele><time>2026-05-22T20:39:55.000Z</time></trkpt>
        <trkpt lat="29.3566017" lon="103.0196033"><ele>2929.39</ele><time>2026-05-22T20:41:09.000Z</time></trkpt>
        <trkpt lat="29.3565833" lon="103.019705"><ele>2932.92</ele><time>2026-05-22T20:42:01.000Z</time></trkpt>
        <trkpt lat="29.3565438" lon="103.0197996"><ele>2936.01</ele><time>2026-05-22T20:42:21.000Z</time></trkpt>
        <trkpt lat="29.3564933" lon="103.0198917"><ele>2938.16</ele><time>2026-05-22T20:43:43.000Z</time></trkpt>
        <trkpt lat="29.3564767" lon="103.019905"><ele>2942</ele><time>2026-05-22T20:44:01.000Z</time></trkpt>
        <trkpt lat="29.3564106" lon="103.0199635"><ele>2944.24</ele><time>2026-05-22T20:44:43.000Z</time></trkpt>
        <trkpt lat="29.356323" lon="103.0199977"><ele>2946.63</ele><time>2026-05-22T20:45:01.000Z</time></trkpt>
        <trkpt lat="29.3562384" lon="103.0200448"><ele>2949.11</ele><time>2026-05-22T20:45:27.000Z</time></trkpt>
        <trkpt lat="29.3561399" lon="103.0200665"><ele>2952.33</ele><time>2026-05-22T20:46:10.000Z</time></trkpt>
        <trkpt lat="29.3560286" lon="103.0200934"><ele>2952.92</ele><time>2026-05-22T20:46:22.000Z</time></trkpt>
        <trkpt lat="29.3559841" lon="103.0201771"><ele>2951.88</ele><time>2026-05-22T20:46:36.000Z</time></trkpt>
        <trkpt lat="29.3559029" lon="103.0201967"><ele>2951.8</ele><time>2026-05-22T20:46:44.000Z</time></trkpt>
        <trkpt lat="29.3558203" lon="103.0202388"><ele>2952.32</ele><time>2026-05-22T20:47:16.000Z</time></trkpt>
        <trkpt lat="29.3557264" lon="103.0202497"><ele>2954.33</ele><time>2026-05-22T20:47:40.000Z</time></trkpt>
        <trkpt lat="29.3556683" lon="103.020325"><ele>2956.64</ele><time>2026-05-22T20:49:04.000Z</time></trkpt>
        <trkpt lat="29.3555717" lon="103.0203383"><ele>2959.03</ele><time>2026-05-22T20:49:44.000Z</time></trkpt>
        <trkpt lat="29.3555004" lon="103.0204053"><ele>2962.12</ele><time>2026-05-22T20:50:14.000Z</time></trkpt>
        <trkpt lat="29.3554297" lon="103.0203607"><ele>2966.63</ele><time>2026-05-22T20:50:50.000Z</time></trkpt>
        <trkpt lat="29.3553444" lon="103.0203243"><ele>2969.2</ele><time>2026-05-22T20:51:08.000Z</time></trkpt>
        <trkpt lat="29.3552471" lon="103.0203071"><ele>2969.89</ele><time>2026-05-22T20:51:26.000Z</time></trkpt>
        <trkpt lat="29.3551534" lon="103.020314"><ele>2969.81</ele><time>2026-05-22T20:51:46.000Z</time></trkpt>
        <trkpt lat="29.3550493" lon="103.0203321"><ele>2967.91</ele><time>2026-05-22T20:52:10.000Z</time></trkpt>
        <trkpt lat="29.3549717" lon="103.0202567"><ele>2967.09</ele><time>2026-05-22T20:53:46.000Z</time></trkpt>
        <trkpt lat="29.3548833" lon="103.0202867"><ele>2965.59</ele><time>2026-05-22T20:55:18.000Z</time></trkpt>
        <trkpt lat="29.3547917" lon="103.0203067"><ele>2968.48</ele><time>2026-05-22T20:56:18.000Z</time></trkpt>
        <trkpt lat="29.3547017" lon="103.0202617"><ele>2971.54</ele><time>2026-05-22T21:01:30.000Z</time></trkpt>
        <trkpt lat="29.3546017" lon="103.0202383"><ele>2975.48</ele><time>2026-05-22T21:01:44.000Z</time></trkpt>
        <trkpt lat="29.3545073" lon="103.0202347"><ele>2977.64</ele><time>2026-05-22T21:02:08.000Z</time></trkpt>
        <trkpt lat="29.3544191" lon="103.0202642"><ele>2979.52</ele><time>2026-05-22T21:02:58.000Z</time></trkpt>
        <trkpt lat="29.35442" lon="103.0201567"><ele>2979.72</ele><time>2026-05-22T21:04:12.000Z</time></trkpt>
        <trkpt lat="29.3543217" lon="103.0202467"><ele>2978.68</ele><time>2026-05-22T21:04:26.000Z</time></trkpt>
        <trkpt lat="29.354215" lon="103.02028"><ele>2977.61</ele><time>2026-05-22T21:06:26.000Z</time></trkpt>
        <trkpt lat="29.3542317" lon="103.0202533"><ele>2984.45</ele><time>2026-05-22T21:06:40.000Z</time></trkpt>
        <trkpt lat="29.35415" lon="103.0203083"><ele>2989.2</ele><time>2026-05-22T21:09:26.000Z</time></trkpt>
        <trkpt lat="29.35409" lon="103.0202267"><ele>2992.69</ele><time>2026-05-22T21:09:38.000Z</time></trkpt>
        <trkpt lat="29.3540074" lon="103.0201831"><ele>2994.41</ele><time>2026-05-22T21:10:08.000Z</time></trkpt>
        <trkpt lat="29.353905" lon="103.0201317"><ele>2997.46</ele><time>2026-05-22T21:12:28.000Z</time></trkpt>
        <trkpt lat="29.3539033" lon="103.0200233"><ele>2999.2</ele><time>2026-05-22T21:12:54.000Z</time></trkpt>
        <trkpt lat="29.3538171" lon="103.0200038"><ele>3000.79</ele><time>2026-05-22T21:13:30.000Z</time></trkpt>
        <trkpt lat="29.3537698" lon="103.0199679"><ele>3001.87</ele><time>2026-05-22T21:13:40.000Z</time></trkpt>
        <trkpt lat="29.353688" lon="103.0199474"><ele>3001.37</ele><time>2026-05-22T21:14:26.000Z</time></trkpt>
        <trkpt lat="29.3537037" lon="103.0199017"><ele>3006.37</ele><time>2026-05-22T21:14:50.000Z</time></trkpt>
        <trkpt lat="29.353658" lon="103.019839"><ele>3008.92</ele><time>2026-05-22T21:15:42.000Z</time></trkpt>
        <trkpt lat="29.3535881" lon="103.0198697"><ele>3012.57</ele><time>2026-05-22T21:16:20.000Z</time></trkpt>
        <trkpt lat="29.353495" lon="103.0198367"><ele>3016.24</ele><time>2026-05-22T21:17:44.000Z</time></trkpt>
        <trkpt lat="29.3534767" lon="103.0197267"><ele>3018.85</ele><time>2026-05-22T21:19:48.000Z</time></trkpt>
        <trkpt lat="29.3534117" lon="103.0196433"><ele>3023.86</ele><time>2026-05-22T21:21:50.000Z</time></trkpt>
        <trkpt lat="29.3533933" lon="103.0195383"><ele>3030.07</ele><time>2026-05-22T21:24:52.000Z</time></trkpt>
        <trkpt lat="29.3534867" lon="103.0195167"><ele>3036.54</ele><time>2026-05-22T21:27:58.000Z</time></trkpt>
        <trkpt lat="29.3534717" lon="103.019495"><ele>3042.33</ele><time>2026-05-22T21:28:16.000Z</time></trkpt>
        <trkpt lat="29.3533749" lon="103.0195185"><ele>3046.1</ele><time>2026-05-22T21:28:30.000Z</time></trkpt>
        <trkpt lat="29.3532816" lon="103.0194727"><ele>3047.91</ele><time>2026-05-22T21:28:50.000Z</time></trkpt>
        <trkpt lat="29.353253" lon="103.0194708"><ele>3048.59</ele><time>2026-05-22T21:28:54.000Z</time></trkpt>
        <trkpt lat="29.3533274" lon="103.0194886"><ele>3048.72</ele><time>2026-05-22T21:29:02.000Z</time></trkpt>
        <trkpt lat="29.3532908" lon="103.0195077"><ele>3048.5</ele><time>2026-05-22T21:29:14.000Z</time></trkpt>
        <trkpt lat="29.3532091" lon="103.0195182"><ele>3047.9</ele><time>2026-05-22T21:30:14.000Z</time></trkpt>
        <trkpt lat="29.353251" lon="103.0195146"><ele>3047.08</ele><time>2026-05-22T21:30:26.000Z</time></trkpt>
        <trkpt lat="29.3533083" lon="103.019615"><ele>3049.8</ele><time>2026-05-22T21:32:08.000Z</time></trkpt>
        <trkpt lat="29.353315" lon="103.0195867"><ele>3053.41</ele><time>2026-05-22T21:32:18.000Z</time></trkpt>
        <trkpt lat="29.353225" lon="103.0196183"><ele>3055.9</ele><time>2026-05-22T21:33:58.000Z</time></trkpt>
        <trkpt lat="29.3531433" lon="103.0195567"><ele>3058.1</ele><time>2026-05-22T21:34:44.000Z</time></trkpt>
        <trkpt lat="29.3530383" lon="103.01957"><ele>3058.7</ele><time>2026-05-22T21:37:20.000Z</time></trkpt>
        <trkpt lat="29.35306" lon="103.0194683"><ele>3064.94</ele><time>2026-05-22T21:39:32.000Z</time></trkpt>
        <trkpt lat="29.3531067" lon="103.019375"><ele>3071.55</ele><time>2026-05-22T21:52:00.000Z</time></trkpt>
        <trkpt lat="29.3530583" lon="103.0194717"><ele>3078.28</ele><time>2026-05-22T21:52:42.000Z</time></trkpt>
        <trkpt lat="29.3530183" lon="103.0196183"><ele>3080.31</ele><time>2026-05-22T21:53:46.000Z</time></trkpt>
        <trkpt lat="29.3531167" lon="103.0195767"><ele>3081.12</ele><time>2026-05-22T21:54:26.000Z</time></trkpt>
        <trkpt lat="29.353195" lon="103.0196433"><ele>3080.34</ele><time>2026-05-22T21:55:42.000Z</time></trkpt>
        <trkpt lat="29.353275" lon="103.019595"><ele>3076.62</ele><time>2026-05-22T21:56:34.000Z</time></trkpt>
        <trkpt lat="29.3532567" lon="103.01949"><ele>3072.87</ele><time>2026-05-22T21:58:10.000Z</time></trkpt>
        <trkpt lat="29.3533483" lon="103.0195483"><ele>3066.95</ele><time>2026-05-22T21:58:38.000Z</time></trkpt>
        <trkpt lat="29.3532863" lon="103.01946"><ele>3063.31</ele><time>2026-05-22T21:59:04.000Z</time></trkpt>
        <trkpt lat="29.3533683" lon="103.0194467"><ele>3061.24</ele><time>2026-05-22T22:00:44.000Z</time></trkpt>
        <trkpt lat="29.3533667" lon="103.0195567"><ele>3059.07</ele><time>2026-05-22T22:01:26.000Z</time></trkpt>
        <trkpt lat="29.3534533" lon="103.0196433"><ele>3056.12</ele><time>2026-05-22T22:03:26.000Z</time></trkpt>
        <trkpt lat="29.3534817" lon="103.0197733"><ele>3051.38</ele><time>2026-05-22T22:04:24.000Z</time></trkpt>
        <trkpt lat="29.3535142" lon="103.0198921"><ele>3046.27</ele><time>2026-05-22T22:05:24.000Z</time></trkpt>
        <trkpt lat="29.3535939" lon="103.0199277"><ele>3040.73</ele><time>2026-05-22T22:05:40.000Z</time></trkpt>
        <trkpt lat="29.3536619" lon="103.0198684"><ele>3037.97</ele><time>2026-05-22T22:05:56.000Z</time></trkpt>
        <trkpt lat="29.3537268" lon="103.0198988"><ele>3034.41</ele><time>2026-05-22T22:06:36.000Z</time></trkpt>
        <trkpt lat="29.3538367" lon="103.019995"><ele>3030.02</ele><time>2026-05-22T22:07:58.000Z</time></trkpt>
        <trkpt lat="29.35394" lon="103.0200567"><ele>3024.63</ele><time>2026-05-22T22:08:32.000Z</time></trkpt>
        <trkpt lat="29.3539827" lon="103.0201677"><ele>3019.63</ele><time>2026-05-22T22:09:02.000Z</time></trkpt>
        <trkpt lat="29.354061" lon="103.0202244"><ele>3015.49</ele><time>2026-05-22T22:09:28.000Z</time></trkpt>
        <trkpt lat="29.3541438" lon="103.0202694"><ele>3011.79</ele><time>2026-05-22T22:09:48.000Z</time></trkpt>
        <trkpt lat="29.354233" lon="103.0202837"><ele>3009.13</ele><time>2026-05-22T22:10:08.000Z</time></trkpt>
        <trkpt lat="29.3543253" lon="103.0202656"><ele>3006.75</ele><time>2026-05-22T22:10:48.000Z</time></trkpt>
        <trkpt lat="29.3544183" lon="103.020255"><ele>3004.62</ele><time>2026-05-22T22:11:58.000Z</time></trkpt>
        <trkpt lat="29.3545083" lon="103.0202283"><ele>3003.06</ele><time>2026-05-22T22:13:34.000Z</time></trkpt>
        <trkpt lat="29.3546" lon="103.020225"><ele>2997.06</ele><time>2026-05-22T22:13:54.000Z</time></trkpt>
        <trkpt lat="29.3547058" lon="103.0202456"><ele>2993.76</ele><time>2026-05-22T22:14:06.000Z</time></trkpt>
        <trkpt lat="29.3547986" lon="103.0202757"><ele>2992.23</ele><time>2026-05-22T22:14:28.000Z</time></trkpt>
        <trkpt lat="29.3548883" lon="103.0202883"><ele>2990.63</ele><time>2026-05-22T22:15:34.000Z</time></trkpt>
        <trkpt lat="29.3549917" lon="103.0202833"><ele>2986.49</ele><time>2026-05-22T22:16:54.000Z</time></trkpt>
        <trkpt lat="29.3550717" lon="103.0203333"><ele>2980</ele><time>2026-05-22T22:17:04.000Z</time></trkpt>
        <trkpt lat="29.3551587" lon="103.0203608"><ele>2976.69</ele><time>2026-05-22T22:17:18.000Z</time></trkpt>
        <trkpt lat="29.3552419" lon="103.0203109"><ele>2975.62</ele><time>2026-05-22T22:18:08.000Z</time></trkpt>
        <trkpt lat="29.3553301" lon="103.0203182"><ele>2975.74</ele><time>2026-05-22T22:18:46.000Z</time></trkpt>
        <trkpt lat="29.355429" lon="103.0203112"><ele>2977.4</ele><time>2026-05-22T22:19:36.000Z</time></trkpt>
        <trkpt lat="29.355519" lon="103.0203423"><ele>2978.35</ele><time>2026-05-22T22:20:18.000Z</time></trkpt>
        <trkpt lat="29.35561" lon="103.0203238"><ele>2977.94</ele><time>2026-05-22T22:21:00.000Z</time></trkpt>
        <trkpt lat="29.3557002" lon="103.0203105"><ele>2977.45</ele><time>2026-05-22T22:21:38.000Z</time></trkpt>
        <trkpt lat="29.3557614" lon="103.020242"><ele>2976.01</ele><time>2026-05-22T22:22:16.000Z</time></trkpt>
        <trkpt lat="29.3558433" lon="103.020209"><ele>2971.66</ele><time>2026-05-22T22:22:42.000Z</time></trkpt>
        <trkpt lat="29.3559332" lon="103.0201886"><ele>2968.71</ele><time>2026-05-22T22:23:12.000Z</time></trkpt>
        <trkpt lat="29.3560093" lon="103.0201364"><ele>2967.16</ele><time>2026-05-22T22:23:30.000Z</time></trkpt>
        <trkpt lat="29.3560899" lon="103.0200705"><ele>2964.16</ele><time>2026-05-22T22:23:50.000Z</time></trkpt>
        <trkpt lat="29.3561864" lon="103.0200397"><ele>2961.77</ele><time>2026-05-22T22:24:06.000Z</time></trkpt>
        <trkpt lat="29.3562874" lon="103.020017"><ele>2961.53</ele><time>2026-05-22T22:24:20.000Z</time></trkpt>
        <trkpt lat="29.3563766" lon="103.0199685"><ele>2962.2</ele><time>2026-05-22T22:24:44.000Z</time></trkpt>
        <trkpt lat="29.3564684" lon="103.0199333"><ele>2963.36</ele><time>2026-05-22T22:25:00.000Z</time></trkpt>
        <trkpt lat="29.3565387" lon="103.0198701"><ele>2963.29</ele><time>2026-05-22T22:25:52.000Z</time></trkpt>
        <trkpt lat="29.3565917" lon="103.0197683"><ele>2958.09</ele><time>2026-05-22T22:27:20.000Z</time></trkpt>
        <trkpt lat="29.3566617" lon="103.0196567"><ele>2952.55</ele><time>2026-05-22T22:28:18.000Z</time></trkpt>
        <trkpt lat="29.3567317" lon="103.0195831"><ele>2948.14</ele><time>2026-05-22T22:28:36.000Z</time></trkpt>
        <trkpt lat="29.3567438" lon="103.0194854"><ele>2945.2</ele><time>2026-05-22T22:28:52.000Z</time></trkpt>
        <trkpt lat="29.3567679" lon="103.0193891"><ele>2943.52</ele><time>2026-05-22T22:29:12.000Z</time></trkpt>
        <trkpt lat="29.3567993" lon="103.0192922"><ele>2942.65</ele><time>2026-05-22T22:29:28.000Z</time></trkpt>
        <trkpt lat="29.3568631" lon="103.0192191"><ele>2942.59</ele><time>2026-05-22T22:29:44.000Z</time></trkpt>
        <trkpt lat="29.3569452" lon="103.019161"><ele>2942.76</ele><time>2026-05-22T22:30:11.000Z</time></trkpt>
        <trkpt lat="29.357026" lon="103.0191022"><ele>2941.15</ele><time>2026-05-22T22:30:25.000Z</time></trkpt>
        <trkpt lat="29.35707" lon="103.0190133"><ele>2938.76</ele><time>2026-05-22T22:31:29.000Z</time></trkpt>
        <trkpt lat="29.357045" lon="103.0189033"><ele>2932.88</ele><time>2026-05-22T22:32:49.000Z</time></trkpt>
        <trkpt lat="29.357135" lon="103.01889"><ele>2927</ele><time>2026-05-22T22:33:19.000Z</time></trkpt>
        <trkpt lat="29.35716" lon="103.01879"><ele>2922.14</ele><time>2026-05-22T22:34:57.000Z</time></trkpt>
        <trkpt lat="29.3572283" lon="103.0187067"><ele>2916.92</ele><time>2026-05-22T22:37:09.000Z</time></trkpt>
        <trkpt lat="29.35732" lon="103.018655"><ele>2910.33</ele><time>2026-05-22T22:38:27.000Z</time></trkpt>
        <trkpt lat="29.3574117" lon="103.0186317"><ele>2902.53</ele><time>2026-05-22T22:39:17.000Z</time></trkpt>
        <trkpt lat="29.3574991" lon="103.0186013"><ele>2895.98</ele><time>2026-05-22T22:40:03.000Z</time></trkpt>
        <trkpt lat="29.3575783" lon="103.01855"><ele>2888.85</ele><time>2026-05-22T22:41:33.000Z</time></trkpt>
        <trkpt lat="29.35767" lon="103.018575"><ele>2878.8</ele><time>2026-05-22T22:42:37.000Z</time></trkpt>
        <trkpt lat="29.357765" lon="103.0185517"><ele>2870.33</ele><time>2026-05-22T22:44:53.000Z</time></trkpt>
        <trkpt lat="29.3578033" lon="103.0186483"><ele>2861.28</ele><time>2026-05-22T22:45:45.000Z</time></trkpt>
        <trkpt lat="29.3578121" lon="103.0187577"><ele>2853.76</ele><time>2026-05-22T22:46:23.000Z</time></trkpt>
        <trkpt lat="29.3578773" lon="103.0187522"><ele>2849.35</ele><time>2026-05-22T22:46:49.000Z</time></trkpt>
        <trkpt lat="29.3579638" lon="103.0187047"><ele>2843.91</ele><time>2026-05-22T22:47:39.000Z</time></trkpt>
        <trkpt lat="29.3580733" lon="103.018665"><ele>2839.39</ele><time>2026-05-22T22:48:43.000Z</time></trkpt>
        <trkpt lat="29.358095" lon="103.0185617"><ele>2832.21</ele><time>2026-05-22T22:48:59.000Z</time></trkpt>
        <trkpt lat="29.3581917" lon="103.018585"><ele>2826.74</ele><time>2026-05-22T22:50:01.000Z</time></trkpt>
        <trkpt lat="29.35827" lon="103.0185333"><ele>2820.19</ele><time>2026-05-22T22:51:27.000Z</time></trkpt>
        <trkpt lat="29.3583617" lon="103.0185283"><ele>2810.99</ele><time>2026-05-22T22:52:01.000Z</time></trkpt>
        <trkpt lat="29.3584483" lon="103.018575"><ele>2805.53</ele><time>2026-05-22T22:53:27.000Z</time></trkpt>
        <trkpt lat="29.3584" lon="103.0186783"><ele>2798.98</ele><time>2026-05-22T22:54:37.000Z</time></trkpt>
        <trkpt lat="29.358375" lon="103.01879"><ele>2791.37</ele><time>2026-05-22T22:55:09.000Z</time></trkpt>
        <trkpt lat="29.3583091" lon="103.0189115"><ele>2785.62</ele><time>2026-05-22T22:55:55.000Z</time></trkpt>
        <trkpt lat="29.3582244" lon="103.0189988"><ele>2780.62</ele><time>2026-05-22T22:56:23.000Z</time></trkpt>
        <trkpt lat="29.35826" lon="103.0190983"><ele>2775.71</ele><time>2026-05-22T22:57:53.000Z</time></trkpt>
        <trkpt lat="29.35835" lon="103.0191117"><ele>2769.94</ele><time>2026-05-22T22:59:21.000Z</time></trkpt>
        <trkpt lat="29.35843" lon="103.0191617"><ele>2759.86</ele><time>2026-05-22T23:00:33.000Z</time></trkpt>
        <trkpt lat="29.358445" lon="103.0192717"><ele>2750.28</ele><time>2026-05-22T23:01:37.000Z</time></trkpt>
        <trkpt lat="29.3585283" lon="103.0193217"><ele>2741.64</ele><time>2026-05-22T23:02:35.000Z</time></trkpt>
        <trkpt lat="29.358625" lon="103.0193067"><ele>2732.63</ele><time>2026-05-22T23:03:41.000Z</time></trkpt>
        <trkpt lat="29.3586383" lon="103.01941"><ele>2726.04</ele><time>2026-05-22T23:05:51.000Z</time></trkpt>
        <trkpt lat="29.358565" lon="103.0194733"><ele>2715.22</ele><time>2026-05-22T23:06:11.000Z</time></trkpt>
        <trkpt lat="29.3584733" lon="103.0194887"><ele>2707.64</ele><time>2026-05-22T23:06:29.000Z</time></trkpt>
        <trkpt lat="29.3583939" lon="103.0195368"><ele>2702.72</ele><time>2026-05-22T23:07:03.000Z</time></trkpt>
        <trkpt lat="29.3583281" lon="103.0196149"><ele>2698.93</ele><time>2026-05-22T23:07:25.000Z</time></trkpt>
        <trkpt lat="29.35832" lon="103.01974"><ele>2695.77</ele><time>2026-05-22T23:08:57.000Z</time></trkpt>
        <trkpt lat="29.358285" lon="103.0198667"><ele>2691.1</ele><time>2026-05-22T23:09:49.000Z</time></trkpt>
        <trkpt lat="29.3582783" lon="103.01997"><ele>2686.19</ele><time>2026-05-22T23:10:51.000Z</time></trkpt>
        <trkpt lat="29.3583683" lon="103.0199383"><ele>2678.71</ele><time>2026-05-22T23:11:37.000Z</time></trkpt>
        <trkpt lat="29.3584499" lon="103.0198799"><ele>2671.65</ele><time>2026-05-22T23:12:17.000Z</time></trkpt>
        <trkpt lat="29.3585351" lon="103.0199016"><ele>2664.49</ele><time>2026-05-22T23:12:59.000Z</time></trkpt>
        <trkpt lat="29.3586289" lon="103.0198867"><ele>2658.21</ele><time>2026-05-22T23:13:33.000Z</time></trkpt>
        <trkpt lat="29.3586983" lon="103.019823"><ele>2651.88</ele><time>2026-05-22T23:14:11.000Z</time></trkpt>
        <trkpt lat="29.3588117" lon="103.0198033"><ele>2646.26</ele><time>2026-05-22T23:15:55.000Z</time></trkpt>
        <trkpt lat="29.358935" lon="103.019775"><ele>2637.24</ele><time>2026-05-22T23:16:51.000Z</time></trkpt>
        <trkpt lat="29.3590433" lon="103.0197383"><ele>2629.48</ele><time>2026-05-22T23:18:45.000Z</time></trkpt>
        <trkpt lat="29.3592133" lon="103.0196767"><ele>2622.09</ele><time>2026-05-22T23:20:17.000Z</time></trkpt>
        <trkpt lat="29.3592983" lon="103.0197267"><ele>2613.75</ele><time>2026-05-22T23:20:59.000Z</time></trkpt>
        <trkpt lat="29.3593481" lon="103.0198119"><ele>2606.2</ele><time>2026-05-22T23:21:21.000Z</time></trkpt>
        <trkpt lat="29.3594225" lon="103.0198635"><ele>2600.74</ele><time>2026-05-22T23:21:53.000Z</time></trkpt>
        <trkpt lat="29.35954" lon="103.0198917"><ele>2595.82</ele><time>2026-05-22T23:22:57.000Z</time></trkpt>
        <trkpt lat="29.3596183" lon="103.019825"><ele>2588.8</ele><time>2026-05-22T23:23:23.000Z</time></trkpt>
        <trkpt lat="29.3597133" lon="103.0197117"><ele>2582.65</ele><time>2026-05-22T23:24:41.000Z</time></trkpt>
        <trkpt lat="29.3597983" lon="103.019675"><ele>2576.26</ele><time>2026-05-22T23:25:15.000Z</time></trkpt>
        <trkpt lat="29.3598763" lon="103.0196172"><ele>2571.2</ele><time>2026-05-22T23:25:57.000Z</time></trkpt>
        <trkpt lat="29.35997" lon="103.0195667"><ele>2565.82</ele><time>2026-05-22T23:27:21.000Z</time></trkpt>
        <trkpt lat="29.3600567" lon="103.0195217"><ele>2559.36</ele><time>2026-05-22T23:28:05.000Z</time></trkpt>
        <trkpt lat="29.3601419" lon="103.0194837"><ele>2552.62</ele><time>2026-05-22T23:28:37.000Z</time></trkpt>
        <trkpt lat="29.3602269" lon="103.0195216"><ele>2547.71</ele><time>2026-05-22T23:29:17.000Z</time></trkpt>
        <trkpt lat="29.3603056" lon="103.0195833"><ele>2542.5</ele><time>2026-05-22T23:29:49.000Z</time></trkpt>
        <trkpt lat="29.3604045" lon="103.0196612"><ele>2536.99</ele><time>2026-05-22T23:30:23.000Z</time></trkpt>
        <trkpt lat="29.3605011" lon="103.0196691"><ele>2531.58</ele><time>2026-05-22T23:30:47.000Z</time></trkpt>
        <trkpt lat="29.3605811" lon="103.0196097"><ele>2526.73</ele><time>2026-05-22T23:31:05.000Z</time></trkpt>
        <trkpt lat="29.360652" lon="103.0195231"><ele>2522.11</ele><time>2026-05-22T23:31:23.000Z</time></trkpt>
        <trkpt lat="29.3607291" lon="103.019444"><ele>2517.46</ele><time>2026-05-22T23:31:43.000Z</time></trkpt>
        <trkpt lat="29.3608194" lon="103.0194318"><ele>2513.05</ele><time>2026-05-22T23:32:01.000Z</time></trkpt>
        <trkpt lat="29.3608983" lon="103.019387"><ele>2509.37</ele><time>2026-05-22T23:32:23.000Z</time></trkpt>
        <trkpt lat="29.360985" lon="103.0193727"><ele>2505.64</ele><time>2026-05-22T23:32:41.000Z</time></trkpt>
        <trkpt lat="29.3610748" lon="103.0193573"><ele>2502.66</ele><time>2026-05-22T23:33:03.000Z</time></trkpt>
        <trkpt lat="29.3611816" lon="103.01935"><ele>2499.23</ele><time>2026-05-22T23:33:41.000Z</time></trkpt>
        <trkpt lat="29.3612757" lon="103.0193211"><ele>2494.92</ele><time>2026-05-22T23:34:07.000Z</time></trkpt>
        <trkpt lat="29.361364" lon="103.0193362"><ele>2490.65</ele><time>2026-05-22T23:34:29.000Z</time></trkpt>
        <trkpt lat="29.3614552" lon="103.019358"><ele>2486.59</ele><time>2026-05-22T23:34:55.000Z</time></trkpt>
        <trkpt lat="29.3615292" lon="103.0193139"><ele>2483.24</ele><time>2026-05-22T23:35:13.000Z</time></trkpt>
        <trkpt lat="29.3616144" lon="103.0192943"><ele>2479.56</ele><time>2026-05-22T23:35:29.000Z</time></trkpt>
        <trkpt lat="29.3616971" lon="103.0193342"><ele>2476.44</ele><time>2026-05-22T23:35:41.000Z</time></trkpt>
        <trkpt lat="29.3617877" lon="103.0193559"><ele>2473.41</ele><time>2026-05-22T23:36:01.000Z</time></trkpt>
        <trkpt lat="29.3618786" lon="103.0193602"><ele>2469.28</ele><time>2026-05-22T23:36:23.000Z</time></trkpt>
        <trkpt lat="29.3619618" lon="103.0194026"><ele>2466.28</ele><time>2026-05-22T23:36:43.000Z</time></trkpt>
        <trkpt lat="29.3620395" lon="103.0193581"><ele>2463.1</ele><time>2026-05-22T23:36:57.000Z</time></trkpt>
        <trkpt lat="29.3621066" lon="103.0192825"><ele>2459.57</ele><time>2026-05-22T23:37:21.000Z</time></trkpt>
        <trkpt lat="29.3621905" lon="103.0192257"><ele>2454.64</ele><time>2026-05-22T23:37:37.000Z</time></trkpt>
        <trkpt lat="29.3622749" lon="103.0191745"><ele>2449.89</ele><time>2026-05-22T23:37:53.000Z</time></trkpt>
        <trkpt lat="29.3623667" lon="103.0191539"><ele>2445.98</ele><time>2026-05-22T23:38:15.000Z</time></trkpt>
        <trkpt lat="29.3624595" lon="103.019132"><ele>2443.97</ele><time>2026-05-22T23:38:39.000Z</time></trkpt>
        <trkpt lat="29.3625548" lon="103.019127"><ele>2444.02</ele><time>2026-05-22T23:39:07.000Z</time></trkpt>
        <trkpt lat="29.3626117" lon="103.01904"><ele>2446.12</ele><time>2026-05-22T23:42:21.000Z</time></trkpt>
        <trkpt lat="29.3626667" lon="103.018955"><ele>2447.19</ele><time>2026-05-22T23:42:39.000Z</time></trkpt>
        <trkpt lat="29.3627555" lon="103.0189433"><ele>2448.7</ele><time>2026-05-22T23:42:51.000Z</time></trkpt>
        <trkpt lat="29.3628143" lon="103.0189537"><ele>2449.86</ele><time>2026-05-22T23:43:03.000Z</time></trkpt>
        <trkpt lat="29.3629067" lon="103.0189433"><ele>2450.35</ele><time>2026-05-22T23:44:09.000Z</time></trkpt>
        <trkpt lat="29.3629883" lon="103.0188883"><ele>2447.92</ele><time>2026-05-22T23:44:43.000Z</time></trkpt>
        <trkpt lat="29.3630827" lon="103.0188982"><ele>2447.83</ele><time>2026-05-22T23:44:57.000Z</time></trkpt>
        <trkpt lat="29.363175" lon="103.0188683"><ele>2448.03</ele><time>2026-05-22T23:46:37.000Z</time></trkpt>
        <trkpt lat="29.3632633" lon="103.0189033"><ele>2448.23</ele><time>2026-05-22T23:47:11.000Z</time></trkpt>
        <trkpt lat="29.3633474" lon="103.0189553"><ele>2447.66</ele><time>2026-05-22T23:47:27.000Z</time></trkpt>
        <trkpt lat="29.3634372" lon="103.0189832"><ele>2447.42</ele><time>2026-05-22T23:47:45.000Z</time></trkpt>
        <trkpt lat="29.3635237" lon="103.0190237"><ele>2448.01</ele><time>2026-05-22T23:48:01.000Z</time></trkpt>
        <trkpt lat="29.363614" lon="103.019023"><ele>2449.34</ele><time>2026-05-22T23:48:25.000Z</time></trkpt>
        <trkpt lat="29.3637032" lon="103.0190596"><ele>2449.41</ele><time>2026-05-22T23:48:47.000Z</time></trkpt>
        <trkpt lat="29.3637918" lon="103.0190881"><ele>2448.07</ele><time>2026-05-22T23:49:27.000Z</time></trkpt>
        <trkpt lat="29.363875" lon="103.0189667"><ele>2447.74</ele><time>2026-05-22T23:50:51.000Z</time></trkpt>
        <trkpt lat="29.36385" lon="103.0188567"><ele>2442.65</ele><time>2026-05-22T23:51:07.000Z</time></trkpt>
        <trkpt lat="29.363911" lon="103.0187918"><ele>2440.17</ele><time>2026-05-22T23:51:21.000Z</time></trkpt>
        <trkpt lat="29.3639242" lon="103.0186809"><ele>2438.9</ele><time>2026-05-22T23:51:35.000Z</time></trkpt>
        <trkpt lat="29.363948" lon="103.0185608"><ele>2437.31</ele><time>2026-05-22T23:51:47.000Z</time></trkpt>
        <trkpt lat="29.3639684" lon="103.018442"><ele>2436.1</ele><time>2026-05-22T23:51:57.000Z</time></trkpt>
        <trkpt lat="29.3639972" lon="103.0183273"><ele>2435.5</ele><time>2026-05-22T23:52:13.000Z</time></trkpt>
        <trkpt lat="29.3640354" lon="103.0182184"><ele>2434.9</ele><time>2026-05-22T23:52:25.000Z</time></trkpt>
        <trkpt lat="29.3641079" lon="103.0181393"><ele>2434.55</ele><time>2026-05-22T23:52:35.000Z</time></trkpt>
        <trkpt lat="29.3641646" lon="103.0180395"><ele>2434.44</ele><time>2026-05-22T23:52:47.000Z</time></trkpt>
        <trkpt lat="29.3642308" lon="103.0179529"><ele>2433.87</ele><time>2026-05-22T23:52:59.000Z</time></trkpt>
        <trkpt lat="29.3642938" lon="103.0178739"><ele>2432.68</ele><time>2026-05-22T23:53:09.000Z</time></trkpt>
        <trkpt lat="29.3643675" lon="103.0178119"><ele>2431.7</ele><time>2026-05-22T23:53:19.000Z</time></trkpt>
        <trkpt lat="29.3644299" lon="103.0177368"><ele>2430.92</ele><time>2026-05-22T23:53:31.000Z</time></trkpt>
        <trkpt lat="29.3644999" lon="103.0176517"><ele>2429.71</ele><time>2026-05-22T23:53:47.000Z</time></trkpt>
        <trkpt lat="29.3645818" lon="103.0175793"><ele>2429.19</ele><time>2026-05-22T23:54:05.000Z</time></trkpt>
        <trkpt lat="29.3646728" lon="103.017517"><ele>2429.71</ele><time>2026-05-22T23:54:19.000Z</time></trkpt>
        <trkpt lat="29.3647483" lon="103.0174533"><ele>2429.58</ele><time>2026-05-22T23:55:45.000Z</time></trkpt>
        <trkpt lat="29.3648417" lon="103.0174183"><ele>2429.07</ele><time>2026-05-22T23:55:55.000Z</time></trkpt>
        <trkpt lat="29.3648842" lon="103.0173199"><ele>2426.67</ele><time>2026-05-22T23:56:07.000Z</time></trkpt>
        <trkpt lat="29.3649384" lon="103.0172308"><ele>2423.8</ele><time>2026-05-22T23:56:21.000Z</time></trkpt>
        <trkpt lat="29.3649608" lon="103.0171167"><ele>2419.2</ele><time>2026-05-22T23:56:31.000Z</time></trkpt>
        <trkpt lat="29.3650121" lon="103.0170104"><ele>2416.23</ele><time>2026-05-22T23:56:43.000Z</time></trkpt>
        <trkpt lat="29.3650985" lon="103.0169513"><ele>2415.66</ele><time>2026-05-22T23:56:51.000Z</time></trkpt>
        <trkpt lat="29.3651522" lon="103.0168638"><ele>2416.02</ele><time>2026-05-22T23:57:05.000Z</time></trkpt>
        <trkpt lat="29.3652043" lon="103.0167662"><ele>2416.53</ele><time>2026-05-22T23:57:17.000Z</time></trkpt>
        <trkpt lat="29.3652701" lon="103.0166802"><ele>2415.83</ele><time>2026-05-22T23:57:27.000Z</time></trkpt>
        <trkpt lat="29.3653352" lon="103.016593"><ele>2415.47</ele><time>2026-05-22T23:57:41.000Z</time></trkpt>
        <trkpt lat="29.3654083" lon="103.0165276"><ele>2414.54</ele><time>2026-05-22T23:57:53.000Z</time></trkpt>
        <trkpt lat="29.3654877" lon="103.0164714"><ele>2412.76</ele><time>2026-05-22T23:58:03.000Z</time></trkpt>
        <trkpt lat="29.365564" lon="103.016401"><ele>2411.23</ele><time>2026-05-22T23:58:11.000Z</time></trkpt>
        <trkpt lat="29.3656447" lon="103.0163155"><ele>2408.89</ele><time>2026-05-22T23:58:19.000Z</time></trkpt>
        <trkpt lat="29.3657356" lon="103.0163011"><ele>2406.92</ele><time>2026-05-22T23:58:35.000Z</time></trkpt>
        <trkpt lat="29.3658098" lon="103.0162434"><ele>2406.65</ele><time>2026-05-22T23:58:43.000Z</time></trkpt>
        <trkpt lat="29.3658798" lon="103.0161677"><ele>2406.33</ele><time>2026-05-22T23:58:51.000Z</time></trkpt>
        <trkpt lat="29.3659361" lon="103.0160823"><ele>2405.03</ele><time>2026-05-22T23:59:05.000Z</time></trkpt>
        <trkpt lat="29.3659968" lon="103.0159946"><ele>2401.79</ele><time>2026-05-22T23:59:17.000Z</time></trkpt>
        <trkpt lat="29.3660789" lon="103.015975"><ele>2398.4</ele><time>2026-05-22T23:59:29.000Z</time></trkpt>
        <trkpt lat="29.3661791" lon="103.0159972"><ele>2396.07</ele><time>2026-05-22T23:59:39.000Z</time></trkpt>
        <trkpt lat="29.3662298" lon="103.0159174"><ele>2395.83</ele><time>2026-05-22T23:59:51.000Z</time></trkpt>
        <trkpt lat="29.3662985" lon="103.0158201"><ele>2397.71</ele><time>2026-05-23T00:00:01.000Z</time></trkpt>
        <trkpt lat="29.3663618" lon="103.0157186"><ele>2396.29</ele><time>2026-05-23T00:00:09.000Z</time></trkpt>
        <trkpt lat="29.3664533" lon="103.015676"><ele>2393.62</ele><time>2026-05-23T00:00:19.000Z</time></trkpt>
        <trkpt lat="29.3665466" lon="103.0156791"><ele>2392.62</ele><time>2026-05-23T00:00:27.000Z</time></trkpt>
        <trkpt lat="29.3666417" lon="103.0157429"><ele>2392.31</ele><time>2026-05-23T00:00:37.000Z</time></trkpt>
        <trkpt lat="29.3667154" lon="103.015844"><ele>2392.48</ele><time>2026-05-23T00:00:45.000Z</time></trkpt>
        <trkpt lat="29.3668107" lon="103.0158294"><ele>2393.48</ele><time>2026-05-23T00:00:57.000Z</time></trkpt>
        <trkpt lat="29.3669035" lon="103.0157964"><ele>2394.13</ele><time>2026-05-23T00:01:07.000Z</time></trkpt>
        <trkpt lat="29.367006" lon="103.0158082"><ele>2393.6</ele><time>2026-05-23T00:01:15.000Z</time></trkpt>
        <trkpt lat="29.3670792" lon="103.0158718"><ele>2394.29</ele><time>2026-05-23T00:01:23.000Z</time></trkpt>
        <trkpt lat="29.3671561" lon="103.0159384"><ele>2395.24</ele><time>2026-05-23T00:01:29.000Z</time></trkpt>
        <trkpt lat="29.3672532" lon="103.0159566"><ele>2396.6</ele><time>2026-05-23T00:01:43.000Z</time></trkpt>
        <trkpt lat="29.3673279" lon="103.0160152"><ele>2399.74</ele><time>2026-05-23T00:01:51.000Z</time></trkpt>
        <trkpt lat="29.3673912" lon="103.016094"><ele>2402.39</ele><time>2026-05-23T00:02:01.000Z</time></trkpt>
        <trkpt lat="29.3674424" lon="103.0161838"><ele>2404.76</ele><time>2026-05-23T00:02:11.000Z</time></trkpt>
        <trkpt lat="29.3675051" lon="103.0162847"><ele>2405.04</ele><time>2026-05-23T00:02:21.000Z</time></trkpt>
        <trkpt lat="29.3675119" lon="103.0163942"><ele>2405.32</ele><time>2026-05-23T00:02:27.000Z</time></trkpt>
        <trkpt lat="29.3675058" lon="103.016533"><ele>2407.08</ele><time>2026-05-23T00:02:37.000Z</time></trkpt>
        <trkpt lat="29.3674667" lon="103.01665"><ele>2410.87</ele><time>2026-05-23T00:02:45.000Z</time></trkpt>
        <trkpt lat="29.3674919" lon="103.016758"><ele>2414.02</ele><time>2026-05-23T00:02:55.000Z</time></trkpt>
        <trkpt lat="29.3675134" lon="103.0168602"><ele>2415.56</ele><time>2026-05-23T00:03:01.000Z</time></trkpt>
        <trkpt lat="29.3675769" lon="103.0169344"><ele>2415.45</ele><time>2026-05-23T00:03:09.000Z</time></trkpt>
        <trkpt lat="29.3676648" lon="103.0170103"><ele>2412.03</ele><time>2026-05-23T00:03:19.000Z</time></trkpt>
        <trkpt lat="29.3677628" lon="103.0170611"><ele>2406.34</ele><time>2026-05-23T00:03:33.000Z</time></trkpt>
        <trkpt lat="29.3678641" lon="103.0170536"><ele>2401.16</ele><time>2026-05-23T00:03:45.000Z</time></trkpt>
        <trkpt lat="29.3679608" lon="103.0170102"><ele>2397.26</ele><time>2026-05-23T00:03:55.000Z</time></trkpt>
        <trkpt lat="29.3680446" lon="103.0169355"><ele>2393.88</ele><time>2026-05-23T00:04:05.000Z</time></trkpt>
        <trkpt lat="29.368137" lon="103.0168709"><ele>2390.28</ele><time>2026-05-23T00:04:15.000Z</time></trkpt>
        <trkpt lat="29.3682319" lon="103.0168378"><ele>2387.53</ele><time>2026-05-23T00:04:25.000Z</time></trkpt>
        <trkpt lat="29.3683311" lon="103.0168491"><ele>2385.84</ele><time>2026-05-23T00:04:35.000Z</time></trkpt>
        <trkpt lat="29.3684267" lon="103.0168794"><ele>2385.35</ele><time>2026-05-23T00:04:43.000Z</time></trkpt>
        <trkpt lat="29.3685356" lon="103.0168711"><ele>2385.72</ele><time>2026-05-23T00:04:51.000Z</time></trkpt>
        <trkpt lat="29.3686444" lon="103.0168562"><ele>2386.35</ele><time>2026-05-23T00:05:03.000Z</time></trkpt>
        <trkpt lat="29.3687436" lon="103.0168735"><ele>2386.98</ele><time>2026-05-23T00:05:15.000Z</time></trkpt>
        <trkpt lat="29.3688352" lon="103.0168919"><ele>2386.94</ele><time>2026-05-23T00:05:23.000Z</time></trkpt>
        <trkpt lat="29.3689269" lon="103.0169345"><ele>2386.67</ele><time>2026-05-23T00:05:31.000Z</time></trkpt>
        <trkpt lat="29.3690304" lon="103.0169676"><ele>2386.42</ele><time>2026-05-23T00:05:41.000Z</time></trkpt>
        <trkpt lat="29.3691298" lon="103.0170055"><ele>2387.06</ele><time>2026-05-23T00:05:55.000Z</time></trkpt>
        <trkpt lat="29.3692485" lon="103.0170234"><ele>2386.56</ele><time>2026-05-23T00:06:07.000Z</time></trkpt>
        <trkpt lat="29.3693617" lon="103.0170123"><ele>2383.91</ele><time>2026-05-23T00:06:17.000Z</time></trkpt>
        <trkpt lat="29.3694393" lon="103.0170841"><ele>2382.1</ele><time>2026-05-23T00:06:25.000Z</time></trkpt>
        <trkpt lat="29.3694785" lon="103.0171832"><ele>2381.97</ele><time>2026-05-23T00:06:33.000Z</time></trkpt>
        <trkpt lat="29.3695381" lon="103.0172863"><ele>2382.11</ele><time>2026-05-23T00:06:49.000Z</time></trkpt>
        <trkpt lat="29.3696169" lon="103.0173425"><ele>2381.12</ele><time>2026-05-23T00:06:59.000Z</time></trkpt>
        <trkpt lat="29.369692" lon="103.0174033"><ele>2380.81</ele><time>2026-05-23T00:07:05.000Z</time></trkpt>
        <trkpt lat="29.3697738" lon="103.0174686"><ele>2380.89</ele><time>2026-05-23T00:07:13.000Z</time></trkpt>
        <trkpt lat="29.3698077" lon="103.0175662"><ele>2381.37</ele><time>2026-05-23T00:07:21.000Z</time></trkpt>
        <trkpt lat="29.3698924" lon="103.0175966"><ele>2381.08</ele><time>2026-05-23T00:07:29.000Z</time></trkpt>
        <trkpt lat="29.3699969" lon="103.0175708"><ele>2379.97</ele><time>2026-05-23T00:07:41.000Z</time></trkpt>
        <trkpt lat="29.3700945" lon="103.0175447"><ele>2377.83</ele><time>2026-05-23T00:07:49.000Z</time></trkpt>
        <trkpt lat="29.3701903" lon="103.0175631"><ele>2375.67</ele><time>2026-05-23T00:07:59.000Z</time></trkpt>
        <trkpt lat="29.3702935" lon="103.0175976"><ele>2373.06</ele><time>2026-05-23T00:08:09.000Z</time></trkpt>
        <trkpt lat="29.3703916" lon="103.0176244"><ele>2372.65</ele><time>2026-05-23T00:08:15.000Z</time></trkpt>
        <trkpt lat="29.3704674" lon="103.0175555"><ele>2373.79</ele><time>2026-05-23T00:08:37.000Z</time></trkpt>
        <trkpt lat="29.3705475" lon="103.0174863"><ele>2373.71</ele><time>2026-05-23T00:08:45.000Z</time></trkpt>
        <trkpt lat="29.3706266" lon="103.0174233"><ele>2372.76</ele><time>2026-05-23T00:09:05.000Z</time></trkpt>
        <trkpt lat="29.3707146" lon="103.0174215"><ele>2372.22</ele><time>2026-05-23T00:09:15.000Z</time></trkpt>
        <trkpt lat="29.3708136" lon="103.0174095"><ele>2371.39</ele><time>2026-05-23T00:09:25.000Z</time></trkpt>
        <trkpt lat="29.3709088" lon="103.0174072"><ele>2370.23</ele><time>2026-05-23T00:09:33.000Z</time></trkpt>
        <trkpt lat="29.3710067" lon="103.0174413"><ele>2368.8</ele><time>2026-05-23T00:09:43.000Z</time></trkpt>
        <trkpt lat="29.371098" lon="103.0174815"><ele>2368.07</ele><time>2026-05-23T00:09:51.000Z</time></trkpt>
        <trkpt lat="29.3711966" lon="103.0175014"><ele>2367.7</ele><time>2026-05-23T00:10:01.000Z</time></trkpt>
        <trkpt lat="29.3712969" lon="103.0175071"><ele>2367.57</ele><time>2026-05-23T00:10:09.000Z</time></trkpt>
        <trkpt lat="29.3714025" lon="103.0175053"><ele>2367.93</ele><time>2026-05-23T00:10:21.000Z</time></trkpt>
        <trkpt lat="29.3715085" lon="103.0174855"><ele>2368.34</ele><time>2026-05-23T00:10:33.000Z</time></trkpt>
        <trkpt lat="29.3716018" lon="103.0174486"><ele>2367.77</ele><time>2026-05-23T00:10:49.000Z</time></trkpt>
        <trkpt lat="29.3716813" lon="103.0173858"><ele>2367.09</ele><time>2026-05-23T00:10:57.000Z</time></trkpt>
        <trkpt lat="29.371769" lon="103.0173476"><ele>2367.48</ele><time>2026-05-23T00:11:07.000Z</time></trkpt>
        <trkpt lat="29.3718144" lon="103.0174273"><ele>2368.52</ele><time>2026-05-23T00:11:17.000Z</time></trkpt>
        <trkpt lat="29.3717805" lon="103.0175299"><ele>2368.38</ele><time>2026-05-23T00:11:29.000Z</time></trkpt>
        <trkpt lat="29.3716913" lon="103.0175917"><ele>2367.87</ele><time>2026-05-23T00:11:39.000Z</time></trkpt>
        <trkpt lat="29.3715774" lon="103.0176264"><ele>2367.15</ele><time>2026-05-23T00:11:49.000Z</time></trkpt>
        <trkpt lat="29.371463" lon="103.0176397"><ele>2366.44</ele><time>2026-05-23T00:11:59.000Z</time></trkpt>
        <trkpt lat="29.3713543" lon="103.0176553"><ele>2365.22</ele><time>2026-05-23T00:12:09.000Z</time></trkpt>
        <trkpt lat="29.3712513" lon="103.0176736"><ele>2364.22</ele><time>2026-05-23T00:12:19.000Z</time></trkpt>
        <trkpt lat="29.3711501" lon="103.0176674"><ele>2363.01</ele><time>2026-05-23T00:12:27.000Z</time></trkpt>
        <trkpt lat="29.3710435" lon="103.0176552"><ele>2362.02</ele><time>2026-05-23T00:12:41.000Z</time></trkpt>
        <trkpt lat="29.3709337" lon="103.0176297"><ele>2361.41</ele><time>2026-05-23T00:12:55.000Z</time></trkpt>
        <trkpt lat="29.3708368" lon="103.0176343"><ele>2361.32</ele><time>2026-05-23T00:13:05.000Z</time></trkpt>
        <trkpt lat="29.3707375" lon="103.0176675"><ele>2361.44</ele><time>2026-05-23T00:13:11.000Z</time></trkpt>
        <trkpt lat="29.3706467" lon="103.0177115"><ele>2361.55</ele><time>2026-05-23T00:13:21.000Z</time></trkpt>
        <trkpt lat="29.3705539" lon="103.0177711"><ele>2360.71</ele><time>2026-05-23T00:13:31.000Z</time></trkpt>
        <trkpt lat="29.3704861" lon="103.0178573"><ele>2359.42</ele><time>2026-05-23T00:13:43.000Z</time></trkpt>
        <trkpt lat="29.3704086" lon="103.0179126"><ele>2358.72</ele><time>2026-05-23T00:13:53.000Z</time></trkpt>
        <trkpt lat="29.3703146" lon="103.0179091"><ele>2359.1</ele><time>2026-05-23T00:14:05.000Z</time></trkpt>
        <trkpt lat="29.3702183" lon="103.0178621"><ele>2360.39</ele><time>2026-05-23T00:14:15.000Z</time></trkpt>
        <trkpt lat="29.3701293" lon="103.0177989"><ele>2361.04</ele><time>2026-05-23T00:14:21.000Z</time></trkpt>
        <trkpt lat="29.3700385" lon="103.0177565"><ele>2361.28</ele><time>2026-05-23T00:14:49.000Z</time></trkpt>
        <trkpt lat="29.369942" lon="103.0177649"><ele>2358.66</ele><time>2026-05-23T00:14:57.000Z</time></trkpt>
        <trkpt lat="29.3698359" lon="103.0177898"><ele>2357.13</ele><time>2026-05-23T00:15:07.000Z</time></trkpt>
        <trkpt lat="29.3697367" lon="103.0178133"><ele>2353.89</ele><time>2026-05-23T00:15:19.000Z</time></trkpt>
        <trkpt lat="29.3696481" lon="103.0177827"><ele>2352.09</ele><time>2026-05-23T00:15:33.000Z</time></trkpt>
        <trkpt lat="29.3695685" lon="103.0177149"><ele>2353.43</ele><time>2026-05-23T00:15:45.000Z</time></trkpt>
        <trkpt lat="29.3694941" lon="103.0176347"><ele>2354.71</ele><time>2026-05-23T00:15:57.000Z</time></trkpt>
        <trkpt lat="29.3694245" lon="103.0175482"><ele>2354.66</ele><time>2026-05-23T00:16:09.000Z</time></trkpt>
        <trkpt lat="29.3693296" lon="103.0175145"><ele>2354.85</ele><time>2026-05-23T00:16:21.000Z</time></trkpt>
        <trkpt lat="29.369235" lon="103.0174615"><ele>2354.79</ele><time>2026-05-23T00:16:31.000Z</time></trkpt>
        <trkpt lat="29.3691364" lon="103.0174171"><ele>2354.32</ele><time>2026-05-23T00:16:41.000Z</time></trkpt>
        <trkpt lat="29.3690407" lon="103.0174096"><ele>2353.45</ele><time>2026-05-23T00:16:51.000Z</time></trkpt>
        <trkpt lat="29.3689453" lon="103.01739"><ele>2352.83</ele><time>2026-05-23T00:17:01.000Z</time></trkpt>
        <trkpt lat="29.3688463" lon="103.01737"><ele>2352.04</ele><time>2026-05-23T00:17:11.000Z</time></trkpt>
        <trkpt lat="29.3687436" lon="103.0173657"><ele>2351.25</ele><time>2026-05-23T00:17:21.000Z</time></trkpt>
        <trkpt lat="29.3686422" lon="103.017393"><ele>2350.5</ele><time>2026-05-23T00:17:31.000Z</time></trkpt>
        <trkpt lat="29.3685492" lon="103.0174146"><ele>2349.85</ele><time>2026-05-23T00:17:39.000Z</time></trkpt>
        <trkpt lat="29.3684468" lon="103.0174181"><ele>2348.97</ele><time>2026-05-23T00:17:49.000Z</time></trkpt>
        <trkpt lat="29.3683431" lon="103.0174217"><ele>2348.21</ele><time>2026-05-23T00:18:01.000Z</time></trkpt>
        <trkpt lat="29.3682479" lon="103.0174432"><ele>2347.39</ele><time>2026-05-23T00:18:11.000Z</time></trkpt>
        <trkpt lat="29.3681624" lon="103.017483"><ele>2346.32</ele><time>2026-05-23T00:18:19.000Z</time></trkpt>
        <trkpt lat="29.3680637" lon="103.017526"><ele>2345.92</ele><time>2026-05-23T00:18:29.000Z</time></trkpt>
        <trkpt lat="29.3679621" lon="103.0175712"><ele>2345.05</ele><time>2026-05-23T00:18:39.000Z</time></trkpt>
        <trkpt lat="29.3678897" lon="103.0176452"><ele>2343.09</ele><time>2026-05-23T00:18:47.000Z</time></trkpt>
        <trkpt lat="29.3678259" lon="103.0177215"><ele>2341.51</ele><time>2026-05-23T00:18:55.000Z</time></trkpt>
        <trkpt lat="29.36773" lon="103.0177441"><ele>2340.43</ele><time>2026-05-23T00:19:05.000Z</time></trkpt>
        <trkpt lat="29.3676487" lon="103.0176922"><ele>2339.56</ele><time>2026-05-23T00:19:15.000Z</time></trkpt>
        <trkpt lat="29.3675651" lon="103.0176103"><ele>2338.54</ele><time>2026-05-23T00:19:25.000Z</time></trkpt>
        <trkpt lat="29.3674716" lon="103.0175366"><ele>2337.66</ele><time>2026-05-23T00:19:35.000Z</time></trkpt>
        <trkpt lat="29.3673733" lon="103.0174929"><ele>2337.16</ele><time>2026-05-23T00:19:45.000Z</time></trkpt>
        <trkpt lat="29.3672801" lon="103.0174759"><ele>2336.02</ele><time>2026-05-23T00:19:53.000Z</time></trkpt>
        <trkpt lat="29.367183" lon="103.0174454"><ele>2334.68</ele><time>2026-05-23T00:20:03.000Z</time></trkpt>
        <trkpt lat="29.3670895" lon="103.0173969"><ele>2333.87</ele><time>2026-05-23T00:20:13.000Z</time></trkpt>
        <trkpt lat="29.3670076" lon="103.0173317"><ele>2332.94</ele><time>2026-05-23T00:20:23.000Z</time></trkpt>
        <trkpt lat="29.3669448" lon="103.0172524"><ele>2332.15</ele><time>2026-05-23T00:20:31.000Z</time></trkpt>
        <trkpt lat="29.3668884" lon="103.0171468"><ele>2331.48</ele><time>2026-05-23T00:20:41.000Z</time></trkpt>
        <trkpt lat="29.3668416" lon="103.0170432"><ele>2330.2</ele><time>2026-05-23T00:20:49.000Z</time></trkpt>
        <trkpt lat="29.3667723" lon="103.0169625"><ele>2327.96</ele><time>2026-05-23T00:20:59.000Z</time></trkpt>
        <trkpt lat="29.3667161" lon="103.0169615"><ele>2327.42</ele><time>2026-05-23T00:21:21.000Z</time></trkpt>
        <trkpt lat="29.3666453" lon="103.0170138"><ele>2329.39</ele><time>2026-05-23T00:22:07.000Z</time></trkpt>
        <trkpt lat="29.3666139" lon="103.0171186"><ele>2326.38</ele><time>2026-05-23T00:22:43.000Z</time></trkpt>
        <trkpt lat="29.3666125" lon="103.0172358"><ele>2324.2</ele><time>2026-05-23T00:23:35.000Z</time></trkpt>
        <trkpt lat="29.3666077" lon="103.017358"><ele>2320.24</ele><time>2026-05-23T00:24:05.000Z</time></trkpt>
        <trkpt lat="29.36658" lon="103.0174733"><ele>2316.18</ele><time>2026-05-23T00:25:09.000Z</time></trkpt>
        <trkpt lat="29.3665333" lon="103.0175767"><ele>2308.1</ele><time>2026-05-23T00:25:53.000Z</time></trkpt>
        <trkpt lat="29.3665683" lon="103.017675"><ele>2301.13</ele><time>2026-05-23T00:27:11.000Z</time></trkpt>
        <trkpt lat="29.366605" lon="103.0177767"><ele>2295.87</ele><time>2026-05-23T00:27:53.000Z</time></trkpt>
        <trkpt lat="29.3666487" lon="103.0178685"><ele>2289.95</ele><time>2026-05-23T00:28:37.000Z</time></trkpt>
        <trkpt lat="29.3666654" lon="103.0179714"><ele>2283.99</ele><time>2026-05-23T00:28:57.000Z</time></trkpt>
        <trkpt lat="29.3666686" lon="103.0180777"><ele>2280.25</ele><time>2026-05-23T00:29:39.000Z</time></trkpt>
        <trkpt lat="29.3666827" lon="103.0181838"><ele>2272.74</ele><time>2026-05-23T00:30:23.000Z</time></trkpt>
        <trkpt lat="29.3667234" lon="103.0182758"><ele>2266.62</ele><time>2026-05-23T00:30:47.000Z</time></trkpt>
        <trkpt lat="29.3667502" lon="103.0183786"><ele>2262.01</ele><time>2026-05-23T00:31:25.000Z</time></trkpt>
        <trkpt lat="29.3667781" lon="103.0184873"><ele>2256.37</ele><time>2026-05-23T00:31:57.000Z</time></trkpt>
        <trkpt lat="29.3667989" lon="103.0185954"><ele>2251.35</ele><time>2026-05-23T00:32:19.000Z</time></trkpt>
        <trkpt lat="29.3668321" lon="103.0186991"><ele>2246.85</ele><time>2026-05-23T00:32:53.000Z</time></trkpt>
        <trkpt lat="29.3668902" lon="103.0187873"><ele>2241.76</ele><time>2026-05-23T00:33:11.000Z</time></trkpt>
        <trkpt lat="29.3668968" lon="103.0188836"><ele>2237.43</ele><time>2026-05-23T00:33:55.000Z</time></trkpt>
        <trkpt lat="29.36691" lon="103.0189933"><ele>2234.1</ele><time>2026-05-23T00:37:51.000Z</time></trkpt>
        <trkpt lat="29.3669233" lon="103.0190983"><ele>2230.27</ele><time>2026-05-23T00:38:33.000Z</time></trkpt>
        <trkpt lat="29.3669762" lon="103.0191864"><ele>2225.85</ele><time>2026-05-23T00:39:09.000Z</time></trkpt>
        <trkpt lat="29.367018" lon="103.0192856"><ele>2220.2</ele><time>2026-05-23T00:39:37.000Z</time></trkpt>
        <trkpt lat="29.367039" lon="103.0193983"><ele>2214.78</ele><time>2026-05-23T00:39:59.000Z</time></trkpt>
        <trkpt lat="29.3670348" lon="103.0195082"><ele>2210.4</ele><time>2026-05-23T00:40:23.000Z</time></trkpt>
        <trkpt lat="29.3670823" lon="103.01959"><ele>2206.01</ele><time>2026-05-23T00:41:01.000Z</time></trkpt>
        <trkpt lat="29.3671631" lon="103.0196425"><ele>2201.58</ele><time>2026-05-23T00:41:33.000Z</time></trkpt>
        <trkpt lat="29.3672004" lon="103.0197319"><ele>2195.95</ele><time>2026-05-23T00:42:01.000Z</time></trkpt>
        <trkpt lat="29.3672779" lon="103.0197446"><ele>2190.68</ele><time>2026-05-23T00:42:17.000Z</time></trkpt>
        <trkpt lat="29.3673672" lon="103.0197171"><ele>2186.56</ele><time>2026-05-23T00:42:29.000Z</time></trkpt>
        <trkpt lat="29.3674654" lon="103.019695"><ele>2184.81</ele><time>2026-05-23T00:42:41.000Z</time></trkpt>
        <trkpt lat="29.3675715" lon="103.0196892"><ele>2182.4</ele><time>2026-05-23T00:42:55.000Z</time></trkpt>
        <trkpt lat="29.3676692" lon="103.0197338"><ele>2180.38</ele><time>2026-05-23T00:43:09.000Z</time></trkpt>
        <trkpt lat="29.367705" lon="103.0198295"><ele>2178.84</ele><time>2026-05-23T00:43:19.000Z</time></trkpt>
        <trkpt lat="29.367633" lon="103.019866"><ele>2177.1</ele><time>2026-05-23T00:43:33.000Z</time></trkpt>
        <trkpt lat="29.3675311" lon="103.0198955"><ele>2174.13</ele><time>2026-05-23T00:43:43.000Z</time></trkpt>
        <trkpt lat="29.3674198" lon="103.0199147"><ele>2172.18</ele><time>2026-05-23T00:43:55.000Z</time></trkpt>
        <trkpt lat="29.3674067" lon="103.0200233"><ele>2170.94</ele><time>2026-05-23T00:45:01.000Z</time></trkpt>
        <trkpt lat="29.3674767" lon="103.0201"><ele>2167.7</ele><time>2026-05-23T00:45:25.000Z</time></trkpt>
        <trkpt lat="29.3675579" lon="103.0201541"><ele>2163.27</ele><time>2026-05-23T00:45:41.000Z</time></trkpt>
        <trkpt lat="29.3675653" lon="103.0202441"><ele>2160.79</ele><time>2026-05-23T00:46:07.000Z</time></trkpt>
        <trkpt lat="29.3675961" lon="103.0203351"><ele>2159.03</ele><time>2026-05-23T00:46:27.000Z</time></trkpt>
        <trkpt lat="29.3676748" lon="103.0203846"><ele>2156.56</ele><time>2026-05-23T00:46:57.000Z</time></trkpt>
        <trkpt lat="29.3677517" lon="103.0204505"><ele>2153.4</ele><time>2026-05-23T00:47:31.000Z</time></trkpt>
        <trkpt lat="29.3678283" lon="103.0205168"><ele>2148.88</ele><time>2026-05-23T00:47:57.000Z</time></trkpt>
        <trkpt lat="29.3679099" lon="103.0205658"><ele>2144.29</ele><time>2026-05-23T00:48:25.000Z</time></trkpt>
        <trkpt lat="29.3679815" lon="103.0206348"><ele>2139.9</ele><time>2026-05-23T00:48:43.000Z</time></trkpt>
        <trkpt lat="29.3680276" lon="103.0207258"><ele>2135.77</ele><time>2026-05-23T00:49:03.000Z</time></trkpt>
        <trkpt lat="29.3680658" lon="103.0208231"><ele>2131.31</ele><time>2026-05-23T00:49:37.000Z</time></trkpt>
        <trkpt lat="29.3680689" lon="103.0209336"><ele>2126.66</ele><time>2026-05-23T00:49:57.000Z</time></trkpt>
        <trkpt lat="29.368103" lon="103.0210353"><ele>2122.94</ele><time>2026-05-23T00:50:35.000Z</time></trkpt>
        <trkpt lat="29.368161" lon="103.0211212"><ele>2119.09</ele><time>2026-05-23T00:51:13.000Z</time></trkpt>
        <trkpt lat="29.3682337" lon="103.0211873"><ele>2113.42</ele><time>2026-05-23T00:51:37.000Z</time></trkpt>
        <trkpt lat="29.368304" lon="103.0212644"><ele>2108.12</ele><time>2026-05-23T00:52:03.000Z</time></trkpt>
        <trkpt lat="29.3683518" lon="103.0213584"><ele>2103.16</ele><time>2026-05-23T00:52:33.000Z</time></trkpt>
        <trkpt lat="29.3683206" lon="103.0214599"><ele>2097.85</ele><time>2026-05-23T00:53:03.000Z</time></trkpt>
        <trkpt lat="29.3683364" lon="103.0215633"><ele>2092.84</ele><time>2026-05-23T00:53:39.000Z</time></trkpt>
        <trkpt lat="29.3683429" lon="103.0216754"><ele>2088.73</ele><time>2026-05-23T00:53:57.000Z</time></trkpt>
        <trkpt lat="29.3683072" lon="103.0217712"><ele>2084.63</ele><time>2026-05-23T00:54:15.000Z</time></trkpt>
        <trkpt lat="29.3683054" lon="103.0218729"><ele>2081.31</ele><time>2026-05-23T00:54:41.000Z</time></trkpt>
        <trkpt lat="29.3682797" lon="103.0219697"><ele>2077.73</ele><time>2026-05-23T00:55:09.000Z</time></trkpt>
        <trkpt lat="29.3682573" lon="103.0220735"><ele>2074.45</ele><time>2026-05-23T00:55:41.000Z</time></trkpt>
        <trkpt lat="29.3682597" lon="103.0221837"><ele>2070.17</ele><time>2026-05-23T00:56:03.000Z</time></trkpt>
        <trkpt lat="29.3682477" lon="103.022291"><ele>2065.58</ele><time>2026-05-23T00:56:17.000Z</time></trkpt>
        <trkpt lat="29.3682206" lon="103.0223956"><ele>2061.2</ele><time>2026-05-23T00:56:33.000Z</time></trkpt>
        <trkpt lat="29.3682569" lon="103.022484"><ele>2057.29</ele><time>2026-05-23T00:56:53.000Z</time></trkpt>
        <trkpt lat="29.3682974" lon="103.0225779"><ele>2053.16</ele><time>2026-05-23T00:57:13.000Z</time></trkpt>
        <trkpt lat="29.3683551" lon="103.0226671"><ele>2049.31</ele><time>2026-05-23T00:57:31.000Z</time></trkpt>
        <trkpt lat="29.3684186" lon="103.0227512"><ele>2044.53</ele><time>2026-05-23T00:57:51.000Z</time></trkpt>
        <trkpt lat="29.3684423" lon="103.0228525"><ele>2039.66</ele><time>2026-05-23T00:58:09.000Z</time></trkpt>
        <trkpt lat="29.3684412" lon="103.022963"><ele>2035.63</ele><time>2026-05-23T00:58:29.000Z</time></trkpt>
        <trkpt lat="29.3684727" lon="103.0230588"><ele>2031.96</ele><time>2026-05-23T00:58:41.000Z</time></trkpt>
        <trkpt lat="29.3685108" lon="103.0231582"><ele>2028.49</ele><time>2026-05-23T00:58:57.000Z</time></trkpt>
        <trkpt lat="29.3685706" lon="103.0232418"><ele>2025.57</ele><time>2026-05-23T00:59:11.000Z</time></trkpt>
        <trkpt lat="29.3686589" lon="103.0232808"><ele>2022.57</ele><time>2026-05-23T00:59:27.000Z</time></trkpt>
        <trkpt lat="29.368746" lon="103.0233244"><ele>2020.39</ele><time>2026-05-23T00:59:55.000Z</time></trkpt>
        <trkpt lat="29.3688329" lon="103.0233851"><ele>2017.77</ele><time>2026-05-23T01:00:27.000Z</time></trkpt>
        <trkpt lat="29.3689084" lon="103.0234559"><ele>2014.99</ele><time>2026-05-23T01:00:39.000Z</time></trkpt>
        <trkpt lat="29.3689717" lon="103.023545"><ele>2012.33</ele><time>2026-05-23T01:00:51.000Z</time></trkpt>
        <trkpt lat="29.3690357" lon="103.023624"><ele>2008.62</ele><time>2026-05-23T01:01:05.000Z</time></trkpt>
        <trkpt lat="29.3690996" lon="103.0237091"><ele>2004.09</ele><time>2026-05-23T01:01:23.000Z</time></trkpt>
        <trkpt lat="29.3691652" lon="103.0237988"><ele>2000.18</ele><time>2026-05-23T01:01:47.000Z</time></trkpt>
        <trkpt lat="29.3692127" lon="103.023896"><ele>1996.45</ele><time>2026-05-23T01:02:03.000Z</time></trkpt>
        <trkpt lat="29.3692525" lon="103.0239929"><ele>1993.33</ele><time>2026-05-23T01:02:17.000Z</time></trkpt>
        <trkpt lat="29.3692966" lon="103.0240892"><ele>1990.35</ele><time>2026-05-23T01:02:35.000Z</time></trkpt>
        <trkpt lat="29.3693433" lon="103.024186"><ele>1987.23</ele><time>2026-05-23T01:02:59.000Z</time></trkpt>
        <trkpt lat="29.3694138" lon="103.0242516"><ele>1984.42</ele><time>2026-05-23T01:03:13.000Z</time></trkpt>
        <trkpt lat="29.3694066" lon="103.0242857"><ele>1982.18</ele><time>2026-05-23T01:03:27.000Z</time></trkpt>
        <trkpt lat="29.3693934" lon="103.0243663"><ele>1982.19</ele><time>2026-05-23T01:03:41.000Z</time></trkpt>
        <trkpt lat="29.369418" lon="103.0244652"><ele>1980.08</ele><time>2026-05-23T01:04:01.000Z</time></trkpt>
        <trkpt lat="29.3694861" lon="103.0245383"><ele>1977.94</ele><time>2026-05-23T01:04:17.000Z</time></trkpt>
        <trkpt lat="29.3694477" lon="103.0246092"><ele>1975.73</ele><time>2026-05-23T01:04:29.000Z</time></trkpt>
        <trkpt lat="29.3693714" lon="103.0246823"><ele>1973.57</ele><time>2026-05-23T01:04:39.000Z</time></trkpt>
        <trkpt lat="29.3692918" lon="103.0247691"><ele>1972.63</ele><time>2026-05-23T01:04:49.000Z</time></trkpt>
        <trkpt lat="29.3692228" lon="103.0248623"><ele>1972.02</ele><time>2026-05-23T01:04:59.000Z</time></trkpt>
        <trkpt lat="29.3691778" lon="103.0249584"><ele>1971.15</ele><time>2026-05-23T01:05:09.000Z</time></trkpt>
        <trkpt lat="29.3691473" lon="103.0250648"><ele>1970.61</ele><time>2026-05-23T01:05:17.000Z</time></trkpt>
        <trkpt lat="29.3691687" lon="103.0251745"><ele>1969.79</ele><time>2026-05-23T01:05:29.000Z</time></trkpt>
        <trkpt lat="29.3692003" lon="103.0252783"><ele>1969.23</ele><time>2026-05-23T01:05:39.000Z</time></trkpt>
        <trkpt lat="29.3692033" lon="103.0253855"><ele>1967.59</ele><time>2026-05-23T01:05:51.000Z</time></trkpt>
        <trkpt lat="29.3691997" lon="103.0254965"><ele>1966.77</ele><time>2026-05-23T01:06:01.000Z</time></trkpt>
        <trkpt lat="29.3692028" lon="103.0256049"><ele>1966.74</ele><time>2026-05-23T01:06:11.000Z</time></trkpt>
        <trkpt lat="29.3692263" lon="103.025722"><ele>1965.13</ele><time>2026-05-23T01:06:23.000Z</time></trkpt>
        <trkpt lat="29.3692421" lon="103.0258336"><ele>1962.75</ele><time>2026-05-23T01:06:33.000Z</time></trkpt>
        <trkpt lat="29.3692703" lon="103.0259477"><ele>1961.14</ele><time>2026-05-23T01:06:47.000Z</time></trkpt>
        <trkpt lat="29.3692577" lon="103.0260564"><ele>1960</ele><time>2026-05-23T01:07:03.000Z</time></trkpt>
        <trkpt lat="29.3692243" lon="103.0261631"><ele>1958.88</ele><time>2026-05-23T01:07:13.000Z</time></trkpt>
        <trkpt lat="29.369169" lon="103.0262592"><ele>1958.72</ele><time>2026-05-23T01:07:23.000Z</time></trkpt>
        <trkpt lat="29.3690965" lon="103.0263317"><ele>1957.46</ele><time>2026-05-23T01:07:31.000Z</time></trkpt>
        <trkpt lat="29.3690513" lon="103.0264451"><ele>1956.49</ele><time>2026-05-23T01:07:43.000Z</time></trkpt>
        <trkpt lat="29.3690094" lon="103.0265476"><ele>1956.24</ele><time>2026-05-23T01:07:51.000Z</time></trkpt>
        <trkpt lat="29.3689848" lon="103.0266623"><ele>1957.47</ele><time>2026-05-23T01:08:01.000Z</time></trkpt>
        <trkpt lat="29.3689373" lon="103.0267574"><ele>1957.74</ele><time>2026-05-23T01:08:09.000Z</time></trkpt>
        <trkpt lat="29.3688539" lon="103.0268247"><ele>1957.38</ele><time>2026-05-23T01:08:21.000Z</time></trkpt>
        <trkpt lat="29.3687707" lon="103.0269013"><ele>1956.91</ele><time>2026-05-23T01:08:33.000Z</time></trkpt>
        <trkpt lat="29.3686823" lon="103.0269669"><ele>1955.27</ele><time>2026-05-23T01:08:43.000Z</time></trkpt>
        <trkpt lat="29.3685894" lon="103.0270302"><ele>1953.22</ele><time>2026-05-23T01:08:53.000Z</time></trkpt>
        <trkpt lat="29.3685435" lon="103.0271298"><ele>1952.27</ele><time>2026-05-23T01:09:03.000Z</time></trkpt>
        <trkpt lat="29.3684967" lon="103.0272346"><ele>1950.65</ele><time>2026-05-23T01:09:13.000Z</time></trkpt>
        <trkpt lat="29.368431" lon="103.0273157"><ele>1948.69</ele><time>2026-05-23T01:09:23.000Z</time></trkpt>
        <trkpt lat="29.3683812" lon="103.0274084"><ele>1946.84</ele><time>2026-05-23T01:09:33.000Z</time></trkpt>
        <trkpt lat="29.3683989" lon="103.0275058"><ele>1945.1</ele><time>2026-05-23T01:09:45.000Z</time></trkpt>
        <trkpt lat="29.3684358" lon="103.0276036"><ele>1941.88</ele><time>2026-05-23T01:09:55.000Z</time></trkpt>
        <trkpt lat="29.3684805" lon="103.0277098"><ele>1938.62</ele><time>2026-05-23T01:10:05.000Z</time></trkpt>
        <trkpt lat="29.3684999" lon="103.0278226"><ele>1935.77</ele><time>2026-05-23T01:10:15.000Z</time></trkpt>
        <trkpt lat="29.3685017" lon="103.0279297"><ele>1933.8</ele><time>2026-05-23T01:10:25.000Z</time></trkpt>
        <trkpt lat="29.3685423" lon="103.0280253"><ele>1932.25</ele><time>2026-05-23T01:10:37.000Z</time></trkpt>
        <trkpt lat="29.3685858" lon="103.0281305"><ele>1930.42</ele><time>2026-05-23T01:10:49.000Z</time></trkpt>
        <trkpt lat="29.3686412" lon="103.0282209"><ele>1927.96</ele><time>2026-05-23T01:10:59.000Z</time></trkpt>
        <trkpt lat="29.3686663" lon="103.0283258"><ele>1926.21</ele><time>2026-05-23T01:11:09.000Z</time></trkpt>
        <trkpt lat="29.3687004" lon="103.0284342"><ele>1924.36</ele><time>2026-05-23T01:11:21.000Z</time></trkpt>
        <trkpt lat="29.3687563" lon="103.0285346"><ele>1922.7</ele><time>2026-05-23T01:11:35.000Z</time></trkpt>
        <trkpt lat="29.3688203" lon="103.0286318"><ele>1920.76</ele><time>2026-05-23T01:11:49.000Z</time></trkpt>
        <trkpt lat="29.3688647" lon="103.028738"><ele>1918.67</ele><time>2026-05-23T01:12:01.000Z</time></trkpt>
        <trkpt lat="29.3688797" lon="103.0288502"><ele>1917.05</ele><time>2026-05-23T01:12:21.000Z</time></trkpt>
        <trkpt lat="29.3688544" lon="103.0289581"><ele>1914.49</ele><time>2026-05-23T01:12:35.000Z</time></trkpt>
        <trkpt lat="29.3688237" lon="103.0290639"><ele>1911.78</ele><time>2026-05-23T01:12:49.000Z</time></trkpt>
        <trkpt lat="29.3688206" lon="103.0291677"><ele>1909.12</ele><time>2026-05-23T01:12:59.000Z</time></trkpt>
        <trkpt lat="29.3688959" lon="103.0292207"><ele>1907.35</ele><time>2026-05-23T01:13:11.000Z</time></trkpt>
        <trkpt lat="29.3689957" lon="103.0292515"><ele>1905.69</ele><time>2026-05-23T01:13:23.000Z</time></trkpt>
        <trkpt lat="29.3690698" lon="103.0293222"><ele>1902.77</ele><time>2026-05-23T01:13:39.000Z</time></trkpt>
        <trkpt lat="29.3691308" lon="103.0294115"><ele>1899.04</ele><time>2026-05-23T01:13:53.000Z</time></trkpt>
        <trkpt lat="29.3692202" lon="103.0294542"><ele>1896.31</ele><time>2026-05-23T01:14:05.000Z</time></trkpt>
        <trkpt lat="29.3692854" lon="103.0295236"><ele>1894.63</ele><time>2026-05-23T01:14:19.000Z</time></trkpt>
        <trkpt lat="29.3693529" lon="103.029592"><ele>1894.01</ele><time>2026-05-23T01:14:29.000Z</time></trkpt>
        <trkpt lat="29.3693905" lon="103.0296859"><ele>1893.79</ele><time>2026-05-23T01:14:41.000Z</time></trkpt>
        <trkpt lat="29.3694275" lon="103.0297926"><ele>1893.15</ele><time>2026-05-23T01:14:55.000Z</time></trkpt>
        <trkpt lat="29.3694922" lon="103.0298862"><ele>1892.4</ele><time>2026-05-23T01:15:09.000Z</time></trkpt>
        <trkpt lat="29.3695531" lon="103.0299823"><ele>1891.41</ele><time>2026-05-23T01:15:19.000Z</time></trkpt>
        <trkpt lat="29.3696152" lon="103.0300654"><ele>1890.42</ele><time>2026-05-23T01:15:29.000Z</time></trkpt>
        <trkpt lat="29.3696875" lon="103.0301386"><ele>1888.6</ele><time>2026-05-23T01:15:43.000Z</time></trkpt>
        <trkpt lat="29.3697395" lon="103.0302363"><ele>1885.63</ele><time>2026-05-23T01:15:57.000Z</time></trkpt>
        <trkpt lat="29.3697909" lon="103.0303389"><ele>1882.78</ele><time>2026-05-23T01:16:09.000Z</time></trkpt>
        <trkpt lat="29.3698529" lon="103.0304198"><ele>1880.85</ele><time>2026-05-23T01:16:19.000Z</time></trkpt>
        <trkpt lat="29.3699254" lon="103.0304946"><ele>1879.45</ele><time>2026-05-23T01:16:31.000Z</time></trkpt>
        <trkpt lat="29.3699613" lon="103.0306067"><ele>1877.67</ele><time>2026-05-23T01:17:07.000Z</time></trkpt>
        <trkpt lat="29.3700132" lon="103.0306982"><ele>1876.82</ele><time>2026-05-23T01:17:23.000Z</time></trkpt>
        <trkpt lat="29.3700988" lon="103.030768"><ele>1875.69</ele><time>2026-05-23T01:17:33.000Z</time></trkpt>
        <trkpt lat="29.3701766" lon="103.0308326"><ele>1873.29</ele><time>2026-05-23T01:17:43.000Z</time></trkpt>
        <trkpt lat="29.3702447" lon="103.0309017"><ele>1869.85</ele><time>2026-05-23T01:17:55.000Z</time></trkpt>
        <trkpt lat="29.3703313" lon="103.0309345"><ele>1865.83</ele><time>2026-05-23T01:18:11.000Z</time></trkpt>
        <trkpt lat="29.3704211" lon="103.0309181"><ele>1863.28</ele><time>2026-05-23T01:18:21.000Z</time></trkpt>
        <trkpt lat="29.3704486" lon="103.0309222"><ele>1859.76</ele><time>2026-05-23T01:18:33.000Z</time></trkpt>
        <trkpt lat="29.3705302" lon="103.0309212"><ele>1860.42</ele><time>2026-05-23T01:18:45.000Z</time></trkpt>
        <trkpt lat="29.3706198" lon="103.0309407"><ele>1861.75</ele><time>2026-05-23T01:18:53.000Z</time></trkpt>
        <trkpt lat="29.3707046" lon="103.0309871"><ele>1861.47</ele><time>2026-05-23T01:19:03.000Z</time></trkpt>
        <trkpt lat="29.3708203" lon="103.0310214"><ele>1860.79</ele><time>2026-05-23T01:19:14.000Z</time></trkpt>
        <trkpt lat="29.370922" lon="103.0310632"><ele>1859.03</ele><time>2026-05-23T01:19:23.000Z</time></trkpt>
        <trkpt lat="29.3710216" lon="103.0310873"><ele>1857.81</ele><time>2026-05-23T01:19:33.000Z</time></trkpt>
        <trkpt lat="29.3711203" lon="103.0311157"><ele>1857.46</ele><time>2026-05-23T01:19:45.000Z</time></trkpt>
        <trkpt lat="29.3711961" lon="103.0311826"><ele>1856.15</ele><time>2026-05-23T01:19:53.000Z</time></trkpt>
        <trkpt lat="29.3712785" lon="103.03127"><ele>1855.83</ele><time>2026-05-23T01:20:05.000Z</time></trkpt>
        <trkpt lat="29.371351" lon="103.0313653"><ele>1855.17</ele><time>2026-05-23T01:20:15.000Z</time></trkpt>
        <trkpt lat="29.3714326" lon="103.0314287"><ele>1853.85</ele><time>2026-05-23T01:20:25.000Z</time></trkpt>
        <trkpt lat="29.3715082" lon="103.031514"><ele>1853.23</ele><time>2026-05-23T01:20:35.000Z</time></trkpt>
        <trkpt lat="29.3715653" lon="103.0316031"><ele>1852.66</ele><time>2026-05-23T01:20:45.000Z</time></trkpt>
        <trkpt lat="29.3716209" lon="103.0316954"><ele>1852.24</ele><time>2026-05-23T01:20:53.000Z</time></trkpt>
        <trkpt lat="29.3716845" lon="103.031797"><ele>1852.18</ele><time>2026-05-23T01:21:11.000Z</time></trkpt>
        <trkpt lat="29.3717619" lon="103.031864"><ele>1853.44</ele><time>2026-05-23T01:21:17.000Z</time></trkpt>
        <trkpt lat="29.3718617" lon="103.0318787"><ele>1853.94</ele><time>2026-05-23T01:21:27.000Z</time></trkpt>
        <trkpt lat="29.3719614" lon="103.0318846"><ele>1853.15</ele><time>2026-05-23T01:21:37.000Z</time></trkpt>
        <trkpt lat="29.3720507" lon="103.0318446"><ele>1852.05</ele><time>2026-05-23T01:21:45.000Z</time></trkpt>
        <trkpt lat="29.372139" lon="103.031789"><ele>1850.39</ele><time>2026-05-23T01:21:55.000Z</time></trkpt>
        <trkpt lat="29.3722309" lon="103.031714"><ele>1849.75</ele><time>2026-05-23T01:22:05.000Z</time></trkpt>
        <trkpt lat="29.3723166" lon="103.0316385"><ele>1849.82</ele><time>2026-05-23T01:22:15.000Z</time></trkpt>
        <trkpt lat="29.372395" lon="103.0315591"><ele>1850.24</ele><time>2026-05-23T01:22:25.000Z</time></trkpt>
        <trkpt lat="29.3724897" lon="103.0315198"><ele>1851.17</ele><time>2026-05-23T01:22:33.000Z</time></trkpt>
        <trkpt lat="29.3725871" lon="103.0314961"><ele>1851.61</ele><time>2026-05-23T01:22:43.000Z</time></trkpt>
        <trkpt lat="29.3726813" lon="103.0314827"><ele>1850.83</ele><time>2026-05-23T01:22:51.000Z</time></trkpt>
        <trkpt lat="29.3727712" lon="103.0314988"><ele>1849.31</ele><time>2026-05-23T01:22:57.000Z</time></trkpt>
        <trkpt lat="29.3728257" lon="103.0315856"><ele>1847.76</ele><time>2026-05-23T01:23:07.000Z</time></trkpt>
        <trkpt lat="29.372905" lon="103.0316644"><ele>1846.57</ele><time>2026-05-23T01:23:19.000Z</time></trkpt>
        <trkpt lat="29.3729729" lon="103.0317453"><ele>1844.91</ele><time>2026-05-23T01:23:27.000Z</time></trkpt>
        <trkpt lat="29.3730501" lon="103.0318196"><ele>1843.18</ele><time>2026-05-23T01:23:37.000Z</time></trkpt>
        <trkpt lat="29.3731212" lon="103.0318951"><ele>1841.25</ele><time>2026-05-23T01:23:47.000Z</time></trkpt>
        <trkpt lat="29.3731472" lon="103.0320046"><ele>1839.6</ele><time>2026-05-23T01:23:55.000Z</time></trkpt>
        <trkpt lat="29.3731495" lon="103.0321175"><ele>1839.12</ele><time>2026-05-23T01:24:13.000Z</time></trkpt>
        <trkpt lat="29.3731656" lon="103.0322371"><ele>1839.2</ele><time>2026-05-23T01:24:37.000Z</time></trkpt>
        <trkpt lat="29.3731745" lon="103.032363"><ele>1838.43</ele><time>2026-05-23T01:24:47.000Z</time></trkpt>
        <trkpt lat="29.3731751" lon="103.0324738"><ele>1839.02</ele><time>2026-05-23T01:24:57.000Z</time></trkpt>
        <trkpt lat="29.3732198" lon="103.0325657"><ele>1839.4</ele><time>2026-05-23T01:25:05.000Z</time></trkpt>
        <trkpt lat="29.3732614" lon="103.0326649"><ele>1839.61</ele><time>2026-05-23T01:25:17.000Z</time></trkpt>
        <trkpt lat="29.3733036" lon="103.0327591"><ele>1839.18</ele><time>2026-05-23T01:25:27.000Z</time></trkpt>
        <trkpt lat="29.3733616" lon="103.0328618"><ele>1837.64</ele><time>2026-05-23T01:25:41.000Z</time></trkpt>
        <trkpt lat="29.3733808" lon="103.032973"><ele>1838.31</ele><time>2026-05-23T01:25:47.000Z</time></trkpt>
        <trkpt lat="29.3733411" lon="103.0330734"><ele>1838.05</ele><time>2026-05-23T01:26:01.000Z</time></trkpt>
        <trkpt lat="29.3733013" lon="103.0331791"><ele>1836.78</ele><time>2026-05-23T01:26:25.000Z</time></trkpt>
        <trkpt lat="29.3732868" lon="103.0331669"><ele>1837</ele><time>2026-05-23T01:26:35.000Z</time></trkpt>
        <trkpt lat="29.3732868" lon="103.0331669"><ele>1837</ele><time>2026-05-23T01:35:32.000Z</time></trkpt>
      </trkseg>
  </trk>
</gpx>